Time,TemperatureF,DewpointF,PressureIn,WindDirection,WindDirectionDegrees,WindSpeedMPH,WindSpeedGustMPH,Humidity,HourlyPrecipIn,Conditions,Clouds,dailyrainin,SoftwareType,DateUTC
2013-10-05 00:02:00,76.3,-99.9,29.80,SE,128,2.0,2.0,255,0.00,,,0.00,Wunderground v.1.15,2013-10-05 05:02:00,
2013-10-05 00:03:00,76.3,-99.9,29.80,SE,128,2.0,2.0,255,0.00,,,0.00,Wunderground v.1.15,2013-10-05 05:03:00,
2013-10-05 00:04:00,76.3,-99.9,29.80,SE,128,2.0,2.0,255,0.00,,,0.00,Wunderground v.1.15,2013-10-05 05:04:00,
2013-10-05 00:06:00,76.3,-99.9,29.80,SSE,154,3.0,3.0,255,0.00,,,0.00,Wunderground v.1.15,2013-10-05 05:06:00,
2013-10-05 00:08:00,76.3,-99.9,29.80,SE,140,5.0,5.0,255,0.00,,,0.00,Wunderground v.1.15,2013-10-05 05:08:00,
2013-10-05 00:09:00,76.1,-99.9,29.80,SE,127,5.0,5.0,255,0.00,,,0.00,Wunderground v.1.15,2013-10-05 05:09:00,
2013-10-05 00:12:00,76.1,-99.9,29.80,SE,127,5.0,5.0,255,0.00,,,0.00,Wunderground v.1.15,2013-10-05 05:12:00,
2013-10-05 00:14:00,76.1,-99.9,29.80,SE,127,5.0,5.0,255,0.00,,,0.00,Wunderground v.1.15,2013-10-05 05:14:00,
2013-10-05 00:15:00,76.1,-99.9,29.80,SE,127,5.0,5.0,255,0.00,,,0.00,Wunderground v.1.15,2013-10-05 05:15:00,
2013-10-05 00:16:00,76.1,-99.9,29.80,SE,127,5.0,5.0,255,0.00,,,0.00,Wunderground v.1.15,2013-10-05 05:16:00,
2013-10-05 00:22:00,76.1,-99.9,29.79,South,179,6.0,6.0,255,0.00,,,0.00,Wunderground v.1.15,2013-10-05 05:22:00,
2013-10-05 00:24:00,76.1,-99.9,29.79,South,179,6.0,6.0,255,0.00,,,0.00,Wunderground v.1.15,2013-10-05 05:24:00,
2013-10-05 00:25:00,76.1,-99.9,29.79,South,179,6.0,6.0,255,0.00,,,0.00,Wunderground v.1.15,2013-10-05 05:25:00,
2013-10-05 00:26:00,76.1,-99.9,29.79,South,179,6.0,6.0,255,0.00,,,0.00,Wunderground v.1.15,2013-10-05 05:26:00,
2013-10-05 00:27:00,76.1,-99.9,29.79,South,179,6.0,6.0,255,0.00,,,0.00,Wunderground v.1.15,2013-10-05 05:27:00,
2013-10-05 00:28:00,-999.9,-99.9,29.79,North,32767,-999.0,6.0,255,-99.99,,,0.00,Wunderground v.1.15,2013-10-05 05:28:00,
2013-10-05 00:32:00,-999.9,-99.9,29.78,North,32767,-999.0,0.0,255,-99.99,,,0.00,Wunderground v.1.15,2013-10-05 05:32:00,
2013-10-05 00:33:00,-999.9,-99.9,29.78,North,32767,-999.0,0.0,255,-99.99,,,0.00,Wunderground v.1.15,2013-10-05 05:33:00,
2013-10-05 00:35:00,-999.9,-99.9,29.78,North,32767,-999.0,0.0,255,-99.99,,,0.00,Wunderground v.1.15,2013-10-05 05:35:00,
2013-10-05 00:36:00,-999.9,-99.9,29.78,North,32767,-999.0,0.0,255,-99.99,,,0.00,Wunderground v.1.15,2013-10-05 05:36:00,
2013-10-05 00:37:00,-999.9,-99.9,29.78,North,32767,-999.0,0.0,255,-99.99,,,0.00,Wunderground v.1.15,2013-10-05 05:37:00,
2013-10-05 00:39:00,-999.9,-99.9,29.78,North,32767,-999.0,0.0,255,-99.99,,,0.00,Wunderground v.1.15,2013-10-05 05:39:00,
2013-10-05 00:42:00,-999.9,-99.9,29.78,North,32767,-999.0,0.0,255,-99.99,,,0.00,Wunderground v.1.15,2013-10-05 05:42:00,
2013-10-05 00:43:00,75.8,-99.9,29.78,SE,140,5.0,5.0,255,-99.99,,,0.00,Wunderground v.1.15,2013-10-05 05:43:00,
2013-10-05 00:44:00,75.8,-99.9,29.78,SE,140,5.0,5.0,255,-99.99,,,0.00,Wunderground v.1.15,2013-10-05 05:44:00,
2013-10-05 00:45:00,75.8,-99.9,29.78,SE,140,5.0,5.0,255,-99.99,,,0.00,Wunderground v.1.15,2013-10-05 05:45:00,
2013-10-05 00:48:00,75.8,-99.9,29.79,SE,140,5.0,5.0,255,-99.99,,,0.00,Wunderground v.1.15,2013-10-05 05:48:00,
2013-10-05 00:49:00,75.8,-99.9,29.79,SE,140,5.0,5.0,255,-99.99,,,0.00,Wunderground v.1.15,2013-10-05 05:49:00,
2013-10-05 00:52:00,75.8,-99.9,29.79,SE,140,5.0,5.0,255,-99.99,,,0.00,Wunderground v.1.15,2013-10-05 05:52:00,
2013-10-05 00:54:00,75.8,-99.9,29.79,SE,140,5.0,5.0,255,-99.99,,,0.00,Wunderground v.1.15,2013-10-05 05:54:00,
2013-10-05 00:55:00,-999.9,-99.9,29.79,North,32767,-999.0,5.0,255,-99.99,,,0.00,Wunderground v.1.15,2013-10-05 05:55:00,
2013-10-05 00:56:00,-999.9,-99.9,29.79,North,32767,-999.0,5.0,255,-99.99,,,0.00,Wunderground v.1.15,2013-10-05 05:56:00,
2013-10-05 00:57:00,-999.9,-99.9,29.79,North,32767,-999.0,5.0,255,-99.99,,,0.00,Wunderground v.1.15,2013-10-05 05:57:00,
2013-10-05 00:58:00,-999.9,-99.9,29.79,North,32767,-999.0,5.0,255,-99.99,,,0.00,Wunderground v.1.15,2013-10-05 05:58:00,
2013-10-05 00:59:00,-999.9,-99.9,29.79,North,32767,-999.0,5.0,255,-99.99,,,0.00,Wunderground v.1.15,2013-10-05 05:59:00,
2013-10-05 01:02:00,-999.9,-99.9,29.78,North,32767,-999.0,0.0,255,-99.99,,,0.00,Wunderground v.1.15,2013-10-05 06:02:00,
2013-10-05 01:04:00,-999.9,-99.9,29.78,North,32767,-999.0,0.0,255,-99.99,,,0.00,Wunderground v.1.15,2013-10-05 06:04:00,
2013-10-05 01:05:00,-999.9,-99.9,29.78,North,32767,-999.0,0.0,255,-99.99,,,0.00,Wunderground v.1.15,2013-10-05 06:05:00,
2013-10-05 01:06:00,-999.9,-99.9,29.78,North,32767,-999.0,0.0,255,-99.99,,,0.00,Wunderground v.1.15,2013-10-05 06:06:00,
2013-10-05 01:08:00,-999.9,-99.9,29.78,North,32767,-999.0,0.0,255,-99.99,,,0.00,Wunderground v.1.15,2013-10-05 06:08:00,
2013-10-05 01:09:00,-999.9,-99.9,29.78,North,32767,-999.0,0.0,255,-99.99,,,0.00,Wunderground v.1.15,2013-10-05 06:09:00,
2013-10-05 01:12:00,-999.9,-99.9,29.78,North,32767,-999.0,0.0,255,-99.99,,,0.00,Wunderground v.1.15,2013-10-05 06:12:00,
2013-10-05 01:14:00,-999.9,-99.9,29.78,North,32767,-999.0,0.0,255,-99.99,,,0.00,Wunderground v.1.15,2013-10-05 06:14:00,
2013-10-05 01:18:00,-999.9,-99.9,29.77,North,32767,-999.0,0.0,255,-99.99,,,0.00,Wunderground v.1.15,2013-10-05 06:18:00,
2013-10-05 01:19:00,-999.9,-99.9,29.77,North,32767,-999.0,0.0,255,-99.99,,,0.00,Wunderground v.1.15,2013-10-05 06:19:00,
2013-10-05 01:22:00,-999.9,-99.9,29.77,North,32767,-999.0,0.0,255,-99.99,,,0.00,Wunderground v.1.15,2013-10-05 06:22:00,
2013-10-05 01:23:00,-999.9,-99.9,29.77,North,32767,-999.0,0.0,255,-99.99,,,0.00,Wunderground v.1.15,2013-10-05 06:23:00,
2013-10-05 01:26:00,-999.9,-99.9,29.77,North,32767,-999.0,0.0,255,-99.99,,,0.00,Wunderground v.1.15,2013-10-05 06:26:00,
2013-10-05 01:28:00,-999.9,-99.9,29.77,North,32767,-999.0,0.0,255,-99.99,,,0.00,Wunderground v.1.15,2013-10-05 06:28:00,
2013-10-05 01:29:00,-999.9,-99.9,29.77,North,32767,-999.0,0.0,255,-99.99,,,0.00,Wunderground v.1.15,2013-10-05 06:29:00,
2013-10-05 01:32:00,-999.9,-99.9,29.76,North,32767,-999.0,0.0,255,-99.99,,,0.00,Wunderground v.1.15,2013-10-05 06:32:00,
2013-10-05 01:34:00,-999.9,-99.9,29.76,North,32767,-999.0,0.0,255,-99.99,,,0.00,Wunderground v.1.15,2013-10-05 06:34:00,
2013-10-05 01:36:00,-999.9,-99.9,29.76,North,32767,-999.0,0.0,255,-99.99,,,0.00,Wunderground v.1.15,2013-10-05 06:36:00,
2013-10-05 01:38:00,-999.9,-99.9,29.76,North,32767,-999.0,0.0,255,-99.99,,,0.00,Wunderground v.1.15,2013-10-05 06:38:00,
2013-10-05 01:42:00,-999.9,-99.9,29.76,North,32767,-999.0,0.0,255,-99.99,,,0.00,Wunderground v.1.15,2013-10-05 06:42:00,
2013-10-05 01:45:00,-999.9,-99.9,29.76,North,32767,-999.0,0.0,255,-99.99,,,0.00,Wunderground v.1.15,2013-10-05 06:45:00,
2013-10-05 01:47:00,-999.9,-99.9,29.77,North,32767,-999.0,0.0,255,-99.99,,,0.00,Wunderground v.1.15,2013-10-05 06:47:00,
2013-10-05 01:48:00,-999.9,-99.9,29.77,North,32767,-999.0,0.0,255,-99.99,,,0.00,Wunderground v.1.15,2013-10-05 06:48:00,
2013-10-05 01:52:00,-999.9,-99.9,29.77,North,32767,-999.0,0.0,255,-99.99,,,0.00,Wunderground v.1.15,2013-10-05 06:52:00,
2013-10-05 01:53:00,-999.9,-99.9,29.77,North,32767,-999.0,0.0,255,-99.99,,,0.00,Wunderground v.1.15,2013-10-05 06:53:00,
2013-10-05 01:54:00,-999.9,-99.9,29.77,North,32767,-999.0,0.0,255,-99.99,,,0.00,Wunderground v.1.15,2013-10-05 06:54:00,
2013-10-05 01:55:00,-999.9,-99.9,29.77,North,32767,-999.0,0.0,255,-99.99,,,0.00,Wunderground v.1.15,2013-10-05 06:55:00,
2013-10-05 01:57:00,-999.9,-99.9,29.77,North,32767,-999.0,0.0,255,-99.99,,,0.00,Wunderground v.1.15,2013-10-05 06:57:00,
2013-10-05 01:58:00,-999.9,-99.9,29.77,North,32767,-999.0,0.0,255,-99.99,,,0.00,Wunderground v.1.15,2013-10-05 06:58:00,
2013-10-05 02:02:00,-999.9,-99.9,29.77,North,32767,-999.0,0.0,255,-99.99,,,0.00,Wunderground v.1.15,2013-10-05 07:02:00,
2013-10-05 02:03:00,-999.9,-99.9,29.76,North,32767,-999.0,0.0,255,-99.99,,,0.00,Wunderground v.1.15,2013-10-05 07:03:00,
2013-10-05 02:04:00,-999.9,-99.9,29.76,North,32767,-999.0,0.0,255,-99.99,,,0.00,Wunderground v.1.15,2013-10-05 07:04:00,
2013-10-05 02:05:00,-999.9,-99.9,29.76,North,32767,-999.0,0.0,255,-99.99,,,0.00,Wunderground v.1.15,2013-10-05 07:05:00,
2013-10-05 02:09:00,-999.9,-99.9,29.76,North,32767,-999.0,0.0,255,-99.99,,,0.00,Wunderground v.1.15,2013-10-05 07:09:00,
2013-10-05 02:12:00,-999.9,-99.9,29.76,North,32767,-999.0,0.0,255,-99.99,,,0.00,Wunderground v.1.15,2013-10-05 07:12:00,
2013-10-05 02:15:00,-999.9,-99.9,29.76,North,32767,-999.0,0.0,255,-99.99,,,0.00,Wunderground v.1.15,2013-10-05 07:15:00,
2013-10-05 02:16:00,-999.9,-99.9,29.76,North,32767,-999.0,0.0,255,-99.99,,,0.00,Wunderground v.1.15,2013-10-05 07:16:00,
2013-10-05 02:17:00,-999.9,-99.9,29.76,North,32767,-999.0,0.0,255,-99.99,,,0.00,Wunderground v.1.15,2013-10-05 07:17:00,
2013-10-05 02:18:00,75.4,-99.9,29.76,SE,131,5.0,5.0,255,0.00,,,0.00,Wunderground v.1.15,2013-10-05 07:18:00,
2013-10-05 02:22:00,75.4,-99.9,29.76,SSE,150,10.0,10.0,255,0.00,,,0.00,Wunderground v.1.15,2013-10-05 07:22:00,
2013-10-05 02:23:00,75.4,-99.9,29.76,SSE,150,10.0,10.0,255,0.00,,,0.00,Wunderground v.1.15,2013-10-05 07:23:00,
2013-10-05 02:24:00,75.4,-99.9,29.76,SSE,150,10.0,10.0,255,0.00,,,0.00,Wunderground v.1.15,2013-10-05 07:24:00,
2013-10-05 02:27:00,75.4,-99.9,29.76,SSW,192,5.0,10.0,255,0.00,,,0.00,Wunderground v.1.15,2013-10-05 07:27:00,
2013-10-05 02:29:00,75.4,-99.9,29.76,SSW,192,5.0,10.0,255,0.00,,,0.00,Wunderground v.1.15,2013-10-05 07:29:00,
2013-10-05 02:32:00,75.4,-99.9,29.76,South,189,7.0,7.0,255,0.00,,,0.00,Wunderground v.1.15,2013-10-05 07:32:00,
2013-10-05 02:33:00,75.4,-99.9,29.77,South,189,7.0,7.0,255,0.00,,,0.00,Wunderground v.1.15,2013-10-05 07:33:00,
2013-10-05 02:34:00,75.4,-99.9,29.77,South,189,7.0,7.0,255,0.00,,,0.00,Wunderground v.1.15,2013-10-05 07:34:00,
2013-10-05 02:38:00,75.4,-99.9,29.77,SSW,196,12.0,12.0,255,0.00,,,0.00,Wunderground v.1.15,2013-10-05 07:38:00,
2013-10-05 02:42:00,75.4,-99.9,29.77,SSW,196,12.0,12.0,255,0.00,,,0.00,Wunderground v.1.15,2013-10-05 07:42:00,
2013-10-05 02:43:00,75.4,-99.9,29.77,SSW,196,12.0,12.0,255,0.00,,,0.00,Wunderground v.1.15,2013-10-05 07:43:00,
2013-10-05 02:44:00,75.4,-99.9,29.77,SSW,196,12.0,12.0,255,0.00,,,0.00,Wunderground v.1.15,2013-10-05 07:44:00,
2013-10-05 02:46:00,-999.9,-99.9,29.77,North,32767,-999.0,12.0,255,-99.99,,,0.00,Wunderground v.1.15,2013-10-05 07:46:00,
2013-10-05 02:48:00,-999.9,-99.9,29.76,North,32767,-999.0,12.0,255,-99.99,,,0.00,Wunderground v.1.15,2013-10-05 07:48:00,
2013-10-05 02:49:00,-999.9,-99.9,29.76,North,32767,-999.0,12.0,255,-99.99,,,0.00,Wunderground v.1.15,2013-10-05 07:49:00,
2013-10-05 02:52:00,-999.9,-99.9,29.76,North,32767,-999.0,0.0,255,-99.99,,,0.00,Wunderground v.1.15,2013-10-05 07:52:00,
2013-10-05 02:54:00,-999.9,-99.9,29.76,North,32767,-999.0,0.0,255,-99.99,,,0.00,Wunderground v.1.15,2013-10-05 07:54:00,
2013-10-05 02:55:00,-999.9,-99.9,29.76,North,32767,-999.0,0.0,255,-99.99,,,0.00,Wunderground v.1.15,2013-10-05 07:55:00,
2013-10-05 02:57:00,-999.9,-99.9,29.76,North,32767,-999.0,0.0,255,-99.99,,,0.00,Wunderground v.1.15,2013-10-05 07:57:00,
2013-10-05 03:02:00,-999.9,-99.9,29.76,North,32767,-999.0,0.0,255,-99.99,,,0.00,Wunderground v.1.15,2013-10-05 08:02:00,
2013-10-05 03:03:00,-999.9,-99.9,29.76,North,32767,-999.0,0.0,255,-99.99,,,0.00,Wunderground v.1.15,2013-10-05 08:03:00,
2013-10-05 03:04:00,-999.9,-99.9,29.76,North,32767,-999.0,0.0,255,-99.99,,,0.00,Wunderground v.1.15,2013-10-05 08:04:00,
2013-10-05 03:07:00,-999.9,-99.9,29.76,North,32767,-999.0,0.0,255,-99.99,,,0.00,Wunderground v.1.15,2013-10-05 08:07:00,
2013-10-05 03:09:00,-999.9,-99.9,29.76,North,32767,-999.0,0.0,255,-99.99,,,0.00,Wunderground v.1.15,2013-10-05 08:09:00,
2013-10-05 03:13:00,-999.9,-99.9,29.76,North,32767,-999.0,0.0,255,-99.99,,,0.00,Wunderground v.1.15,2013-10-05 08:13:00,
2013-10-05 03:14:00,-999.9,-99.9,29.76,North,32767,-999.0,0.0,255,-99.99,,,0.00,Wunderground v.1.15,2013-10-05 08:14:00,
2013-10-05 03:17:00,-999.9,-99.9,29.76,North,32767,-999.0,0.0,255,-99.99,,,0.00,Wunderground v.1.15,2013-10-05 08:17:00,
2013-10-05 03:18:00,-999.9,-99.9,29.76,North,32767,-999.0,0.0,255,-99.99,,,0.00,Wunderground v.1.15,2013-10-05 08:18:00,
2013-10-05 03:19:00,-999.9,-99.9,29.76,North,32767,-999.0,0.0,255,-99.99,,,0.00,Wunderground v.1.15,2013-10-05 08:19:00,
2013-10-05 03:22:00,-999.9,-99.9,29.76,North,32767,-999.0,0.0,255,-99.99,,,0.00,Wunderground v.1.15,2013-10-05 08:22:00,
2013-10-05 03:24:00,-999.9,-99.9,29.76,North,32767,-999.0,0.0,255,-99.99,,,0.00,Wunderground v.1.15,2013-10-05 08:24:00,
2013-10-05 03:25:00,-999.9,-99.9,29.76,North,32767,-999.0,0.0,255,-99.99,,,0.00,Wunderground v.1.15,2013-10-05 08:25:00,
2013-10-05 03:26:00,-999.9,-99.9,29.76,North,32767,-999.0,0.0,255,-99.99,,,0.00,Wunderground v.1.15,2013-10-05 08:26:00,
2013-10-05 03:27:00,-999.9,-99.9,29.76,North,32767,-999.0,0.0,255,-99.99,,,0.00,Wunderground v.1.15,2013-10-05 08:27:00,
2013-10-05 03:29:00,-999.9,-99.9,29.76,North,32767,-999.0,0.0,255,-99.99,,,0.00,Wunderground v.1.15,2013-10-05 08:29:00,
2013-10-05 03:32:00,-999.9,-99.9,29.75,North,32767,-999.0,0.0,255,-99.99,,,0.00,Wunderground v.1.15,2013-10-05 08:32:00,
2013-10-05 03:33:00,-999.9,-99.9,29.75,North,32767,-999.0,0.0,255,-99.99,,,0.00,Wunderground v.1.15,2013-10-05 08:33:00,
2013-10-05 03:36:00,-999.9,-99.9,29.75,North,32767,-999.0,0.0,255,-99.99,,,0.00,Wunderground v.1.15,2013-10-05 08:36:00,
2013-10-05 03:38:00,-999.9,-99.9,29.75,North,32767,-999.0,0.0,255,-99.99,,,0.00,Wunderground v.1.15,2013-10-05 08:38:00,
2013-10-05 03:39:00,-999.9,-99.9,29.75,North,32767,-999.0,0.0,255,-99.99,,,0.00,Wunderground v.1.15,2013-10-05 08:39:00,
2013-10-05 03:40:00,-999.9,-99.9,29.75,North,32767,-999.0,0.0,255,-99.99,,,0.00,Wunderground v.1.15,2013-10-05 08:40:00,
2013-10-05 03:43:00,-999.9,-99.9,29.75,North,32767,-999.0,0.0,255,-99.99,,,0.00,Wunderground v.1.15,2013-10-05 08:43:00,
2013-10-05 03:46:00,-999.9,-99.9,29.75,North,32767,-999.0,0.0,255,-99.99,,,0.00,Wunderground v.1.15,2013-10-05 08:46:00,
2013-10-05 03:48:00,-999.9,-99.9,29.75,North,32767,-999.0,0.0,255,-99.99,,,0.00,Wunderground v.1.15,2013-10-05 08:48:00,
2013-10-05 03:49:00,-999.9,-99.9,29.75,North,32767,-999.0,0.0,255,-99.99,,,0.00,Wunderground v.1.15,2013-10-05 08:49:00,
2013-10-05 03:50:00,-999.9,-99.9,29.75,North,32767,-999.0,0.0,255,-99.99,,,0.00,Wunderground v.1.15,2013-10-05 08:50:00,
2013-10-05 03:53:00,-999.9,-99.9,29.75,North,32767,-999.0,0.0,255,-99.99,,,0.00,Wunderground v.1.15,2013-10-05 08:53:00,
2013-10-05 03:56:00,-999.9,-99.9,29.75,North,32767,-999.0,0.0,255,-99.99,,,0.00,Wunderground v.1.15,2013-10-05 08:56:00,
2013-10-05 03:57:00,-999.9,-99.9,29.75,North,32767,-999.0,0.0,255,-99.99,,,0.00,Wunderground v.1.15,2013-10-05 08:57:00,
2013-10-05 03:58:00,-999.9,-99.9,29.75,North,32767,-999.0,0.0,255,-99.99,,,0.00,Wunderground v.1.15,2013-10-05 08:58:00,
2013-10-05 03:59:00,-999.9,-99.9,29.75,North,32767,-999.0,0.0,255,-99.99,,,0.00,Wunderground v.1.15,2013-10-05 08:59:00,
2013-10-05 04:00:00,-999.9,-99.9,29.75,North,32767,-999.0,0.0,255,-99.99,,,0.00,Wunderground v.1.15,2013-10-05 09:00:00,
2013-10-05 04:03:00,-999.9,-99.9,29.75,North,32767,-999.0,0.0,255,-99.99,,,0.00,Wunderground v.1.15,2013-10-05 09:03:00,
2013-10-05 04:04:00,-999.9,-99.9,29.75,North,32767,-999.0,0.0,255,-99.99,,,0.00,Wunderground v.1.15,2013-10-05 09:04:00,
2013-10-05 04:05:00,-999.9,-99.9,29.75,North,32767,-999.0,0.0,255,-99.99,,,0.00,Wunderground v.1.15,2013-10-05 09:05:00,
2013-10-05 04:07:00,-999.9,-99.9,29.75,North,32767,-999.0,0.0,255,-99.99,,,0.00,Wunderground v.1.15,2013-10-05 09:07:00,
2013-10-05 04:08:00,-999.9,-99.9,29.75,North,32767,-999.0,0.0,255,-99.99,,,0.00,Wunderground v.1.15,2013-10-05 09:08:00,
2013-10-05 04:10:00,-999.9,-99.9,29.75,North,32767,-999.0,0.0,255,-99.99,,,0.00,Wunderground v.1.15,2013-10-05 09:10:00,
2013-10-05 04:12:00,-999.9,-99.9,29.75,North,32767,-999.0,0.0,255,-99.99,,,0.00,Wunderground v.1.15,2013-10-05 09:12:00,
2013-10-05 04:13:00,-999.9,-99.9,29.75,North,32767,-999.0,0.0,255,-99.99,,,0.00,Wunderground v.1.15,2013-10-05 09:13:00,
2013-10-05 04:14:00,-999.9,-99.9,29.75,North,32767,-999.0,0.0,255,-99.99,,,0.00,Wunderground v.1.15,2013-10-05 09:14:00,
2013-10-05 04:15:00,-999.9,-99.9,29.75,North,32767,-999.0,0.0,255,-99.99,,,0.00,Wunderground v.1.15,2013-10-05 09:15:00,
2013-10-05 04:19:00,-999.9,-99.9,29.75,North,32767,-999.0,0.0,255,-99.99,,,0.00,Wunderground v.1.15,2013-10-05 09:19:00,
2013-10-05 04:20:00,-999.9,-99.9,29.75,North,32767,-999.0,0.0,255,-99.99,,,0.00,Wunderground v.1.15,2013-10-05 09:20:00,
2013-10-05 04:23:00,-999.9,-99.9,29.75,North,32767,-999.0,0.0,255,-99.99,,,0.00,Wunderground v.1.15,2013-10-05 09:23:00,
2013-10-05 04:24:00,-999.9,-99.9,29.75,North,32767,-999.0,0.0,255,-99.99,,,0.00,Wunderground v.1.15,2013-10-05 09:24:00,
2013-10-05 04:25:00,-999.9,-99.9,29.75,North,32767,-999.0,0.0,255,-99.99,,,0.00,Wunderground v.1.15,2013-10-05 09:25:00,
2013-10-05 04:27:00,-999.9,-99.9,29.75,North,32767,-999.0,0.0,255,-99.99,,,0.00,Wunderground v.1.15,2013-10-05 09:27:00,
2013-10-05 04:29:00,-999.9,-99.9,29.75,North,32767,-999.0,0.0,255,-99.99,,,0.00,Wunderground v.1.15,2013-10-05 09:29:00,
2013-10-05 04:32:00,-999.9,-99.9,29.75,North,32767,-999.0,0.0,255,-99.99,,,0.00,Wunderground v.1.15,2013-10-05 09:32:00,
2013-10-05 04:35:00,-999.9,-99.9,29.75,North,32767,-999.0,0.0,255,-99.99,,,0.00,Wunderground v.1.15,2013-10-05 09:35:00,
2013-10-05 04:37:00,-999.9,-99.9,29.75,North,32767,-999.0,0.0,255,-99.99,,,0.00,Wunderground v.1.15,2013-10-05 09:37:00,
2013-10-05 04:40:00,-999.9,-99.9,29.75,North,32767,-999.0,0.0,255,-99.99,,,0.00,Wunderground v.1.15,2013-10-05 09:40:00,
2013-10-05 04:43:00,-999.9,-99.9,29.75,North,32767,-999.0,0.0,255,-99.99,,,0.00,Wunderground v.1.15,2013-10-05 09:43:00,
2013-10-05 04:46:00,-999.9,-99.9,29.75,North,32767,-999.0,0.0,255,-99.99,,,0.00,Wunderground v.1.15,2013-10-05 09:46:00,
2013-10-05 04:49:00,-999.9,-99.9,29.75,North,32767,-999.0,0.0,255,-99.99,,,0.00,Wunderground v.1.15,2013-10-05 09:49:00,
2013-10-05 04:50:00,-999.9,-99.9,29.75,North,32767,-999.0,0.0,255,-99.99,,,0.00,Wunderground v.1.15,2013-10-05 09:50:00,
2013-10-05 04:53:00,-999.9,-99.9,29.75,North,32767,-999.0,0.0,255,-99.99,,,0.00,Wunderground v.1.15,2013-10-05 09:53:00,
2013-10-05 04:56:00,-999.9,-99.9,29.75,North,32767,-999.0,0.0,255,-99.99,,,0.00,Wunderground v.1.15,2013-10-05 09:56:00,
2013-10-05 04:58:00,-999.9,-99.9,29.75,North,32767,-999.0,0.0,255,-99.99,,,0.00,Wunderground v.1.15,2013-10-05 09:58:00,
2013-10-05 05:00:00,-999.9,-99.9,29.75,North,32767,-999.0,0.0,255,-99.99,,,0.00,Wunderground v.1.15,2013-10-05 10:00:00,
2013-10-05 05:03:00,-999.9,-99.9,29.75,North,32767,-999.0,0.0,255,-99.99,,,0.00,Wunderground v.1.15,2013-10-05 10:03:00,
2013-10-05 05:05:00,-999.9,-99.9,29.75,North,32767,-999.0,0.0,255,-99.99,,,0.00,Wunderground v.1.15,2013-10-05 10:05:00,
2013-10-05 05:07:00,-999.9,-99.9,29.75,North,32767,-999.0,0.0,255,-99.99,,,0.00,Wunderground v.1.15,2013-10-05 10:07:00,
2013-10-05 05:08:00,-999.9,-99.9,29.75,North,32767,-999.0,0.0,255,-99.99,,,0.00,Wunderground v.1.15,2013-10-05 10:08:00,
2013-10-05 05:10:00,-999.9,-99.9,29.75,North,32767,-999.0,0.0,255,-99.99,,,0.00,Wunderground v.1.15,2013-10-05 10:10:00,
2013-10-05 05:12:00,-999.9,-99.9,29.75,North,32767,-999.0,0.0,255,-99.99,,,0.00,Wunderground v.1.15,2013-10-05 10:12:00,
2013-10-05 05:13:00,-999.9,-99.9,29.75,North,32767,-999.0,0.0,255,-99.99,,,0.00,Wunderground v.1.15,2013-10-05 10:13:00,
2013-10-05 05:15:00,-999.9,-99.9,29.75,North,32767,-999.0,0.0,255,-99.99,,,0.00,Wunderground v.1.15,2013-10-05 10:15:00,
2013-10-05 05:18:00,-999.9,-99.9,29.76,North,32767,-999.0,0.0,255,-99.99,,,0.00,Wunderground v.1.15,2013-10-05 10:18:00,
2013-10-05 05:19:00,-999.9,-99.9,29.76,North,32767,-999.0,0.0,255,-99.99,,,0.00,Wunderground v.1.15,2013-10-05 10:19:00,
2013-10-05 05:20:00,-999.9,-99.9,29.76,North,32767,-999.0,0.0,255,-99.99,,,0.00,Wunderground v.1.15,2013-10-05 10:20:00,
2013-10-05 05:22:00,-999.9,-99.9,29.76,North,32767,-999.0,0.0,255,-99.99,,,0.00,Wunderground v.1.15,2013-10-05 10:22:00,
2013-10-05 05:26:00,-999.9,-99.9,29.76,North,32767,-999.0,0.0,255,-99.99,,,0.00,Wunderground v.1.15,2013-10-05 10:26:00,
2013-10-05 05:28:00,-999.9,-99.9,29.76,North,32767,-999.0,0.0,255,-99.99,,,0.00,Wunderground v.1.15,2013-10-05 10:28:00,
2013-10-05 05:32:00,-999.9,-99.9,29.76,North,32767,-999.0,0.0,255,-99.99,,,0.00,Wunderground v.1.15,2013-10-05 10:32:00,
2013-10-05 05:33:00,-999.9,-99.9,29.76,North,32767,-999.0,0.0,255,-99.99,,,0.00,Wunderground v.1.15,2013-10-05 10:33:00,
2013-10-05 05:34:00,-999.9,-99.9,29.76,North,32767,-999.0,0.0,255,-99.99,,,0.00,Wunderground v.1.15,2013-10-05 10:34:00,
2013-10-05 05:36:00,-999.9,-99.9,29.76,North,32767,-999.0,0.0,255,-99.99,,,0.00,Wunderground v.1.15,2013-10-05 10:36:00,
2013-10-05 05:38:00,-999.9,-99.9,29.76,North,32767,-999.0,0.0,255,-99.99,,,0.00,Wunderground v.1.15,2013-10-05 10:38:00,
2013-10-05 05:42:00,-999.9,-99.9,29.76,North,32767,-999.0,0.0,255,-99.99,,,0.00,Wunderground v.1.15,2013-10-05 10:42:00,
2013-10-05 05:43:00,-999.9,-99.9,29.76,North,32767,-999.0,0.0,255,-99.99,,,0.00,Wunderground v.1.15,2013-10-05 10:43:00,
2013-10-05 05:48:00,-999.9,-99.9,29.77,North,32767,-999.0,0.0,255,-99.99,,,0.00,Wunderground v.1.15,2013-10-05 10:48:00,
2013-10-05 05:49:00,-999.9,-99.9,29.77,North,32767,-999.0,0.0,255,-99.99,,,0.00,Wunderground v.1.15,2013-10-05 10:49:00,
2013-10-05 05:50:00,-999.9,-99.9,29.77,North,32767,-999.0,0.0,255,-99.99,,,0.00,Wunderground v.1.15,2013-10-05 10:50:00,
2013-10-05 05:54:00,-999.9,-99.9,29.77,North,32767,-999.0,0.0,255,-99.99,,,0.00,Wunderground v.1.15,2013-10-05 10:54:00,
2013-10-05 05:58:00,-999.9,-99.9,29.77,North,32767,-999.0,0.0,255,-99.99,,,0.00,Wunderground v.1.15,2013-10-05 10:58:00,
2013-10-05 05:59:00,-999.9,-99.9,29.77,North,32767,-999.0,0.0,255,-99.99,,,0.00,Wunderground v.1.15,2013-10-05 10:59:00,
2013-10-05 06:00:00,-999.9,-99.9,29.77,North,32767,-999.0,0.0,255,-99.99,,,0.00,Wunderground v.1.15,2013-10-05 11:00:00,
2013-10-05 06:06:00,-999.9,-99.9,29.77,North,32767,-999.0,0.0,255,-99.99,,,0.00,Wunderground v.1.15,2013-10-05 11:06:00,
2013-10-05 06:09:00,-999.9,-99.9,29.77,North,32767,-999.0,0.0,255,-99.99,,,0.00,Wunderground v.1.15,2013-10-05 11:09:00,
2013-10-05 06:13:00,-999.9,-99.9,29.77,North,32767,-999.0,0.0,255,-99.99,,,0.00,Wunderground v.1.15,2013-10-05 11:13:00,
2013-10-05 06:14:00,-999.9,-99.9,29.77,North,32767,-999.0,0.0,255,-99.99,,,0.00,Wunderground v.1.15,2013-10-05 11:14:00,
2013-10-05 06:15:00,-999.9,-99.9,29.77,North,32767,-999.0,0.0,255,-99.99,,,0.00,Wunderground v.1.15,2013-10-05 11:15:00,
2013-10-05 06:16:00,-999.9,-99.9,29.77,North,32767,-999.0,0.0,255,-99.99,,,0.00,Wunderground v.1.15,2013-10-05 11:16:00,
2013-10-05 06:20:00,-999.9,-99.9,29.77,North,32767,-999.0,0.0,255,-99.99,,,0.00,Wunderground v.1.15,2013-10-05 11:20:00,
2013-10-05 06:22:00,-999.9,-99.9,29.77,North,32767,-999.0,0.0,255,-99.99,,,0.00,Wunderground v.1.15,2013-10-05 11:22:00,
2013-10-05 06:25:00,-999.9,-99.9,29.77,North,32767,-999.0,0.0,255,-99.99,,,0.00,Wunderground v.1.15,2013-10-05 11:25:00,
2013-10-05 06:28:00,-999.9,-99.9,29.77,North,32767,-999.0,0.0,255,-99.99,,,0.00,Wunderground v.1.15,2013-10-05 11:28:00,
2013-10-05 06:30:00,-999.9,-99.9,29.77,North,32767,-999.0,0.0,255,-99.99,,,0.00,Wunderground v.1.15,2013-10-05 11:30:00,
2013-10-05 06:32:00,-999.9,-99.9,29.77,North,32767,-999.0,0.0,255,-99.99,,,0.00,Wunderground v.1.15,2013-10-05 11:32:00,
2013-10-05 06:33:00,-999.9,-99.9,29.77,North,32767,-999.0,0.0,255,-99.99,,,0.00,Wunderground v.1.15,2013-10-05 11:33:00,
2013-10-05 06:34:00,-999.9,-99.9,29.77,North,32767,-999.0,0.0,255,-99.99,,,0.00,Wunderground v.1.15,2013-10-05 11:34:00,
2013-10-05 06:35:00,-999.9,-99.9,29.77,North,32767,-999.0,0.0,255,-99.99,,,0.00,Wunderground v.1.15,2013-10-05 11:35:00,
2013-10-05 06:39:00,-999.9,-99.9,29.77,North,32767,-999.0,0.0,255,-99.99,,,0.00,Wunderground v.1.15,2013-10-05 11:39:00,
2013-10-05 06:40:00,-999.9,-99.9,29.77,North,32767,-999.0,0.0,255,-99.99,,,0.00,Wunderground v.1.15,2013-10-05 11:40:00,
2013-10-05 06:44:00,-999.9,-99.9,29.77,North,32767,-999.0,0.0,255,-99.99,,,0.00,Wunderground v.1.15,2013-10-05 11:44:00,
2013-10-05 06:45:00,-999.9,-99.9,29.77,North,32767,-999.0,0.0,255,-99.99,,,0.00,Wunderground v.1.15,2013-10-05 11:45:00,
2013-10-05 06:46:00,-999.9,-99.9,29.77,North,32767,-999.0,0.0,255,-99.99,,,0.00,Wunderground v.1.15,2013-10-05 11:46:00,
2013-10-05 06:47:00,-999.9,-99.9,29.77,North,32767,-999.0,0.0,255,-99.99,,,0.00,Wunderground v.1.15,2013-10-05 11:47:00,
2013-10-05 06:48:00,-999.9,-99.9,29.77,North,32767,-999.0,0.0,255,-99.99,,,0.00,Wunderground v.1.15,2013-10-05 11:48:00,
2013-10-05 06:52:00,-999.9,-99.9,29.77,North,32767,-999.0,0.0,255,-99.99,,,0.00,Wunderground v.1.15,2013-10-05 11:52:00,
2013-10-05 06:53:00,-999.9,-99.9,29.77,North,32767,-999.0,0.0,255,-99.99,,,0.00,Wunderground v.1.15,2013-10-05 11:53:00,
2013-10-05 06:54:00,-999.9,-99.9,29.77,North,32767,-999.0,0.0,255,-99.99,,,0.00,Wunderground v.1.15,2013-10-05 11:54:00,
2013-10-05 06:57:00,-999.9,-99.9,29.77,North,32767,-999.0,0.0,255,-99.99,,,0.00,Wunderground v.1.15,2013-10-05 11:57:00,
2013-10-05 06:58:00,-999.9,-99.9,29.77,North,32767,-999.0,0.0,255,-99.99,,,0.00,Wunderground v.1.15,2013-10-05 11:58:00,
2013-10-05 06:59:00,-999.9,-99.9,29.77,North,32767,-999.0,0.0,255,-99.99,,,0.00,Wunderground v.1.15,2013-10-05 11:59:00,
2013-10-05 07:04:00,72.8,70.7,29.78,SSW,205,2.0,2.0,93,0.00,,,0.00,Wunderground v.1.15,2013-10-05 12:04:00,
2013-10-05 07:06:00,72.8,70.7,29.78,SSW,205,2.0,2.0,93,0.00,,,0.00,Wunderground v.1.15,2013-10-05 12:06:00,
2013-10-05 07:07:00,72.8,70.7,29.78,SSW,205,2.0,2.0,93,0.00,,,0.00,Wunderground v.1.15,2013-10-05 12:07:00,
2013-10-05 07:10:00,72.8,70.7,29.78,South,191,1.0,2.0,93,0.00,,,0.00,Wunderground v.1.15,2013-10-05 12:10:00,
2013-10-05 07:14:00,72.8,70.7,29.78,South,191,1.0,1.0,93,0.00,,,0.00,Wunderground v.1.15,2013-10-05 12:14:00,
2013-10-05 07:15:00,72.8,70.7,29.78,South,191,1.0,1.0,93,0.00,,,0.00,Wunderground v.1.15,2013-10-05 12:15:00,
2013-10-05 07:17:00,72.8,70.7,29.78,South,191,1.0,1.0,93,0.00,,,0.00,Wunderground v.1.15,2013-10-05 12:17:00,
2013-10-05 07:20:00,72.8,70.7,29.78,South,191,1.0,1.0,93,0.00,,,0.00,Wunderground v.1.15,2013-10-05 12:20:00,
2013-10-05 07:23:00,-999.9,-99.9,29.78,North,32767,-999.0,0.0,255,-99.99,,,0.00,Wunderground v.1.15,2013-10-05 12:23:00,
2013-10-05 07:25:00,-999.9,-99.9,29.78,North,32767,-999.0,0.0,255,-99.99,,,0.00,Wunderground v.1.15,2013-10-05 12:25:00,
2013-10-05 07:26:00,-999.9,-99.9,29.78,North,32767,-999.0,0.0,255,-99.99,,,0.00,Wunderground v.1.15,2013-10-05 12:26:00,
2013-10-05 07:27:00,-999.9,-99.9,29.78,North,32767,-999.0,0.0,255,-99.99,,,0.00,Wunderground v.1.15,2013-10-05 12:27:00,
2013-10-05 07:29:00,-999.9,-99.9,29.78,North,32767,-999.0,0.0,255,-99.99,,,0.00,Wunderground v.1.15,2013-10-05 12:29:00,
2013-10-05 07:32:00,-999.9,-99.9,29.78,North,32767,-999.0,0.0,255,-99.99,,,0.00,Wunderground v.1.15,2013-10-05 12:32:00,
2013-10-05 07:33:00,-999.9,-99.9,29.78,North,32767,-999.0,0.0,255,-99.99,,,0.00,Wunderground v.1.15,2013-10-05 12:33:00,
2013-10-05 07:35:00,-999.9,-99.9,29.78,North,32767,-999.0,0.0,255,-99.99,,,0.00,Wunderground v.1.15,2013-10-05 12:35:00,
2013-10-05 07:37:00,-999.9,-99.9,29.78,North,32767,-999.0,0.0,255,-99.99,,,0.00,Wunderground v.1.15,2013-10-05 12:37:00,
2013-10-05 07:39:00,-999.9,-99.9,29.78,North,32767,-999.0,0.0,255,-99.99,,,0.00,Wunderground v.1.15,2013-10-05 12:39:00,
2013-10-05 07:40:00,-999.9,-99.9,29.78,North,32767,-999.0,0.0,255,-99.99,,,0.00,Wunderground v.1.15,2013-10-05 12:40:00,
2013-10-05 07:42:00,-999.9,-99.9,29.78,North,32767,-999.0,0.0,255,-99.99,,,0.00,Wunderground v.1.15,2013-10-05 12:42:00,
2013-10-05 07:48:00,-999.9,-99.9,29.78,North,32767,-999.0,0.0,255,-99.99,,,0.00,Wunderground v.1.15,2013-10-05 12:48:00,
2013-10-05 07:49:00,-999.9,-99.9,29.78,North,32767,-999.0,0.0,255,-99.99,,,0.00,Wunderground v.1.15,2013-10-05 12:49:00,
2013-10-05 07:52:00,-999.9,-99.9,29.78,North,32767,-999.0,0.0,255,-99.99,,,0.00,Wunderground v.1.15,2013-10-05 12:52:00,
2013-10-05 07:53:00,-999.9,-99.9,29.78,North,32767,-999.0,0.0,255,-99.99,,,0.00,Wunderground v.1.15,2013-10-05 12:53:00,
2013-10-05 07:57:00,-999.9,-99.9,29.78,North,32767,-999.0,0.0,255,-99.99,,,0.00,Wunderground v.1.15,2013-10-05 12:57:00,
2013-10-05 08:00:00,-999.9,-99.9,29.78,North,32767,-999.0,0.0,255,-99.99,,,0.00,Wunderground v.1.15,2013-10-05 13:00:00,
2013-10-05 08:02:00,-999.9,-99.9,29.78,North,32767,-999.0,0.0,255,-99.99,,,0.00,Wunderground v.1.15,2013-10-05 13:02:00,
2013-10-05 08:06:00,-999.9,-99.9,29.78,North,32767,-999.0,0.0,255,-99.99,,,0.00,Wunderground v.1.15,2013-10-05 13:06:00,
2013-10-05 08:07:00,-999.9,-99.9,29.78,North,32767,-999.0,0.0,255,-99.99,,,0.00,Wunderground v.1.15,2013-10-05 13:07:00,
2013-10-05 08:12:00,-999.9,-99.9,29.78,North,32767,-999.0,0.0,255,-99.99,,,0.00,Wunderground v.1.15,2013-10-05 13:12:00,
2013-10-05 08:13:00,-999.9,-99.9,29.78,North,32767,-999.0,0.0,255,-99.99,,,0.00,Wunderground v.1.15,2013-10-05 13:13:00,
2013-10-05 08:14:00,-999.9,-99.9,29.78,North,32767,-999.0,0.0,255,-99.99,,,0.00,Wunderground v.1.15,2013-10-05 13:14:00,
2013-10-05 08:16:00,-999.9,-99.9,29.78,North,32767,-999.0,0.0,255,-99.99,,,0.00,Wunderground v.1.15,2013-10-05 13:16:00,
2013-10-05 08:18:00,-999.9,-99.9,29.79,North,32767,-999.0,0.0,255,-99.99,,,0.00,Wunderground v.1.15,2013-10-05 13:18:00,
2013-10-05 08:19:00,-999.9,-99.9,29.79,North,32767,-999.0,0.0,255,-99.99,,,0.00,Wunderground v.1.15,2013-10-05 13:19:00,
2013-10-05 08:24:00,-999.9,-99.9,29.79,North,32767,-999.0,0.0,255,-99.99,,,0.00,Wunderground v.1.15,2013-10-05 13:24:00,
2013-10-05 08:25:00,-999.9,-99.9,29.79,North,32767,-999.0,0.0,255,-99.99,,,0.00,Wunderground v.1.15,2013-10-05 13:25:00,
2013-10-05 08:28:00,72.7,70.6,29.79,South,189,1.0,2.0,93,0.00,,,0.00,Wunderground v.1.15,2013-10-05 13:28:00,
2013-10-05 08:29:00,72.7,70.6,29.79,South,175,0.0,3.0,93,0.00,,,0.00,Wunderground v.1.15,2013-10-05 13:29:00,
2013-10-05 08:33:00,72.8,70.7,29.80,South,176,2.0,4.0,93,0.00,,,0.00,Wunderground v.1.15,2013-10-05 13:33:00,
2013-10-05 08:34:00,73.0,70.9,29.80,South,184,2.0,4.0,93,0.00,,,0.00,Wunderground v.1.15,2013-10-05 13:34:00,
2013-10-05 08:35:00,73.0,70.9,29.80,South,186,2.0,4.0,93,0.00,,,0.00,Wunderground v.1.15,2013-10-05 13:35:00,
2013-10-05 08:39:00,73.2,71.1,29.80,South,185,2.0,5.0,93,0.00,,,0.00,Wunderground v.1.15,2013-10-05 13:39:00,
2013-10-05 08:43:00,73.5,71.0,29.80,South,174,3.0,3.0,92,0.00,,,0.00,Wunderground v.1.15,2013-10-05 13:43:00,
2013-10-05 08:44:00,73.5,71.0,29.80,SE,140,2.0,7.0,92,0.00,,,0.00,Wunderground v.1.15,2013-10-05 13:44:00,
2013-10-05 08:45:00,73.5,71.0,29.80,SE,127,3.0,7.0,92,0.00,,,0.00,Wunderground v.1.15,2013-10-05 13:45:00,
2013-10-05 08:46:00,73.7,71.2,29.80,South,179,3.0,7.0,92,0.00,,,0.00,Wunderground v.1.15,2013-10-05 13:46:00,
2013-10-05 08:48:00,73.7,71.2,29.80,SSW,196,3.0,7.0,92,0.00,,,0.00,Wunderground v.1.15,2013-10-05 13:48:00,
2013-10-05 08:52:00,73.7,71.2,29.80,SE,124,4.0,5.0,92,0.00,,,0.00,Wunderground v.1.15,2013-10-05 13:52:00,
2013-10-05 08:54:00,73.7,71.2,29.80,SE,124,4.0,5.0,92,0.00,,,0.00,Wunderground v.1.15,2013-10-05 13:54:00,
2013-10-05 08:56:00,73.7,71.2,29.80,SSW,196,5.0,5.0,92,0.00,,,0.00,Wunderground v.1.15,2013-10-05 13:56:00,
2013-10-05 08:58:00,73.7,71.2,29.80,SSW,208,4.0,7.0,92,0.00,,,0.00,Wunderground v.1.15,2013-10-05 13:58:00,
2013-10-05 08:59:00,73.9,71.4,29.80,South,171,5.0,7.0,92,0.00,,,0.00,Wunderground v.1.15,2013-10-05 13:59:00,
2013-10-05 09:02:00,73.9,70.5,29.80,South,181,3.0,3.0,89,0.00,,,0.00,Wunderground v.1.15,2013-10-05 14:02:00,
2013-10-05 09:05:00,73.9,70.5,29.80,South,175,3.0,3.0,89,0.00,,,0.00,Wunderground v.1.15,2013-10-05 14:05:00,
2013-10-05 09:06:00,74.0,70.6,29.80,SSW,202,3.0,3.0,89,0.00,,,0.00,Wunderground v.1.15,2013-10-05 14:06:00,
2013-10-05 09:07:00,73.9,70.5,29.80,SSE,158,3.0,6.0,89,0.00,,,0.00,Wunderground v.1.15,2013-10-05 14:07:00,
2013-10-05 09:08:00,74.0,70.6,29.80,SE,145,3.0,6.0,89,0.00,,,0.00,Wunderground v.1.15,2013-10-05 14:08:00,
2013-10-05 09:13:00,73.9,70.5,29.80,South,186,4.0,5.0,89,0.00,,,0.00,Wunderground v.1.15,2013-10-05 14:13:00,
2013-10-05 09:14:00,74.0,70.6,29.80,South,188,5.0,8.0,89,0.00,,,0.00,Wunderground v.1.15,2013-10-05 14:14:00,
2013-10-05 09:16:00,74.0,70.6,29.80,SSE,161,5.0,8.0,89,0.00,,,0.00,Wunderground v.1.15,2013-10-05 14:16:00,
2013-10-05 09:18:00,74.4,70.9,29.81,South,189,5.0,8.0,89,0.00,,,0.00,Wunderground v.1.15,2013-10-05 14:18:00,
2013-10-05 09:22:00,74.9,71.4,29.81,SSE,162,4.0,4.0,89,0.00,,,0.00,Wunderground v.1.15,2013-10-05 14:22:00,
2013-10-05 09:23:00,74.9,71.4,29.81,SE,136,4.0,5.0,89,0.00,,,0.00,Wunderground v.1.15,2013-10-05 14:23:00,
2013-10-05 09:24:00,74.9,71.4,29.81,SSE,147,4.0,10.0,89,0.00,,,0.00,Wunderground v.1.15,2013-10-05 14:24:00,
2013-10-05 09:25:00,74.9,71.4,29.81,SSE,168,4.0,10.0,89,0.00,,,0.00,Wunderground v.1.15,2013-10-05 14:25:00,
2013-10-05 09:28:00,74.7,71.2,29.81,SSW,205,5.0,10.0,89,0.00,,,0.00,Wunderground v.1.15,2013-10-05 14:28:00,
2013-10-05 09:32:00,74.7,71.2,29.82,SSW,193,5.0,6.0,89,0.00,,,0.00,Wunderground v.1.15,2013-10-05 14:32:00,
2013-10-05 09:33:00,74.7,71.2,29.82,South,171,6.0,6.0,89,0.00,,,0.00,Wunderground v.1.15,2013-10-05 14:33:00,
2013-10-05 09:35:00,75.1,71.6,29.82,SE,126,5.0,12.0,89,0.00,,,0.00,Wunderground v.1.15,2013-10-05 14:35:00,
2013-10-05 09:37:00,75.1,71.6,29.82,SE,144,4.0,12.0,89,0.00,,,0.00,Wunderground v.1.15,2013-10-05 14:37:00,
2013-10-05 09:39:00,75.1,71.6,29.82,SSE,165,4.0,12.0,89,0.00,,,0.00,Wunderground v.1.15,2013-10-05 14:39:00,
2013-10-05 09:42:00,75.4,71.9,29.82,SSW,193,4.0,4.0,89,0.00,,,0.00,Wunderground v.1.15,2013-10-05 14:42:00,
2013-10-05 09:43:00,75.4,71.9,29.82,SE,145,4.0,5.0,89,0.00,,,0.00,Wunderground v.1.15,2013-10-05 14:43:00,
2013-10-05 09:46:00,75.4,71.9,29.82,South,178,3.0,6.0,89,0.00,,,0.00,Wunderground v.1.15,2013-10-05 14:46:00,
2013-10-05 09:47:00,75.4,71.9,29.82,SE,133,3.0,6.0,89,0.00,,,0.00,Wunderground v.1.15,2013-10-05 14:47:00,
2013-10-05 09:48:00,75.4,71.9,29.82,SE,133,4.0,6.0,89,0.00,,,0.00,Wunderground v.1.15,2013-10-05 14:48:00,
2013-10-05 09:49:00,75.4,71.9,29.82,SE,133,3.0,6.0,89,0.00,,,0.00,Wunderground v.1.15,2013-10-05 14:49:00,
2013-10-05 09:53:00,75.4,71.9,29.82,SE,134,4.0,5.0,89,0.00,,,0.00,Wunderground v.1.15,2013-10-05 14:53:00,
2013-10-05 09:54:00,75.4,71.9,29.82,SE,134,3.0,5.0,89,0.00,,,0.00,Wunderground v.1.15,2013-10-05 14:54:00,
2013-10-05 09:55:00,75.4,71.9,29.82,SE,134,0.0,5.0,89,0.00,,,0.00,Wunderground v.1.15,2013-10-05 14:55:00,
2013-10-05 09:59:00,75.4,71.9,29.82,South,176,2.0,7.0,89,0.00,,,0.00,Wunderground v.1.15,2013-10-05 14:59:00,
2013-10-05 10:00:00,75.4,71.9,29.82,South,176,2.0,7.0,89,0.00,,,0.00,Wunderground v.1.15,2013-10-05 15:00:00,
2013-10-05 10:02:00,76.5,73.0,29.83,SSW,195,6.0,6.0,89,0.00,,,0.00,Wunderground v.1.15,2013-10-05 15:02:00,
2013-10-05 10:03:00,76.7,73.2,29.83,SSW,196,5.0,6.0,89,0.00,,,0.00,Wunderground v.1.15,2013-10-05 15:03:00,
2013-10-05 10:04:00,76.7,73.2,29.83,SSW,196,5.0,6.0,89,0.00,,,0.00,Wunderground v.1.15,2013-10-05 15:04:00,
2013-10-05 10:05:00,76.7,73.2,29.83,SSW,196,5.0,6.0,89,0.00,,,0.00,Wunderground v.1.15,2013-10-05 15:05:00,
2013-10-05 10:07:00,77.0,73.5,29.83,SSE,158,5.0,6.0,89,0.00,,,0.00,Wunderground v.1.15,2013-10-05 15:07:00,
2013-10-05 10:08:00,77.0,73.5,29.83,SSE,158,5.0,6.0,89,0.00,,,0.00,Wunderground v.1.15,2013-10-05 15:08:00,
2013-10-05 10:09:00,77.0,73.5,29.83,SSE,158,5.0,6.0,89,0.00,,,0.00,Wunderground v.1.15,2013-10-05 15:09:00,
2013-10-05 10:12:00,77.0,73.5,29.83,SSE,160,6.0,6.0,89,0.00,,,0.00,Wunderground v.1.15,2013-10-05 15:12:00,
2013-10-05 10:14:00,77.0,73.5,29.83,SSE,160,6.0,6.0,89,0.00,,,0.00,Wunderground v.1.15,2013-10-05 15:14:00,
2013-10-05 10:17:00,77.0,73.5,29.83,SSE,160,6.0,6.0,89,0.00,,,0.00,Wunderground v.1.15,2013-10-05 15:17:00,
2013-10-05 10:18:00,77.0,73.5,29.83,SSE,160,6.0,6.0,89,0.00,,,0.00,Wunderground v.1.15,2013-10-05 15:18:00,
2013-10-05 10:22:00,77.0,73.5,29.83,SSE,160,6.0,6.0,89,0.00,,,0.00,Wunderground v.1.15,2013-10-05 15:22:00,
2013-10-05 10:23:00,-999.9,-99.9,29.83,North,32767,-999.0,6.0,255,-99.99,,,0.00,Wunderground v.1.15,2013-10-05 15:23:00,
2013-10-05 10:24:00,-999.9,-99.9,29.83,North,32767,-999.0,6.0,255,-99.99,,,0.00,Wunderground v.1.15,2013-10-05 15:24:00,
2013-10-05 10:27:00,-999.9,-99.9,29.83,North,32767,-999.0,6.0,255,-99.99,,,0.00,Wunderground v.1.15,2013-10-05 15:27:00,
2013-10-05 10:29:00,-999.9,-99.9,29.83,North,32767,-999.0,6.0,255,-99.99,,,0.00,Wunderground v.1.15,2013-10-05 15:29:00,
2013-10-05 10:32:00,-999.9,-99.9,29.83,North,32767,-999.0,0.0,255,-99.99,,,0.00,Wunderground v.1.15,2013-10-05 15:32:00,
2013-10-05 10:33:00,-999.9,-99.9,29.83,North,32767,-999.0,0.0,255,-99.99,,,0.00,Wunderground v.1.15,2013-10-05 15:33:00,
2013-10-05 10:34:00,-999.9,-99.9,29.83,North,32767,-999.0,0.0,255,-99.99,,,0.00,Wunderground v.1.15,2013-10-05 15:34:00,
2013-10-05 10:36:00,-999.9,-99.9,29.83,North,32767,-999.0,0.0,255,-99.99,,,0.00,Wunderground v.1.15,2013-10-05 15:36:00,
2013-10-05 10:37:00,-999.9,-99.9,29.83,North,32767,-999.0,0.0,255,-99.99,,,0.00,Wunderground v.1.15,2013-10-05 15:37:00,
2013-10-05 10:38:00,-999.9,-99.9,29.83,SW,226,6.0,6.0,255,0.00,,,0.00,Wunderground v.1.15,2013-10-05 15:38:00,
2013-10-05 10:40:00,-999.9,-99.9,29.83,SSW,208,5.0,6.0,255,0.00,,,0.00,Wunderground v.1.15,2013-10-05 15:40:00,
2013-10-05 10:43:00,78.6,-99.9,29.83,SW,233,5.0,8.0,255,0.00,,,0.00,Wunderground v.1.15,2013-10-05 15:43:00,
2013-10-05 10:44:00,78.5,-99.9,29.83,SW,233,4.0,8.0,255,0.00,,,0.00,Wunderground v.1.15,2013-10-05 15:44:00,
2013-10-05 10:47:00,78.5,-99.9,29.83,SW,234,4.0,8.0,255,0.00,,,0.00,Wunderground v.1.15,2013-10-05 15:47:00,
2013-10-05 10:48:00,78.3,69.3,29.84,SW,234,4.0,8.0,74,0.00,,,0.00,Wunderground v.1.15,2013-10-05 15:48:00,
2013-10-05 10:52:00,77.9,69.3,29.84,SW,236,3.0,3.0,75,0.00,,,0.00,Wunderground v.1.15,2013-10-05 15:52:00,
2013-10-05 10:53:00,77.9,69.3,29.84,WSW,240,3.0,3.0,75,0.00,,,0.00,Wunderground v.1.15,2013-10-05 15:53:00,
2013-10-05 10:55:00,77.7,69.1,29.84,WSW,240,3.0,3.0,75,0.00,,,0.00,Wunderground v.1.15,2013-10-05 15:55:00,
2013-10-05 10:56:00,77.7,69.1,29.84,WSW,240,2.0,3.0,75,0.00,,,0.00,Wunderground v.1.15,2013-10-05 15:56:00,
2013-10-05 10:58:00,77.7,69.1,29.84,WSW,240,2.0,3.0,75,0.00,,,0.00,Wunderground v.1.15,2013-10-05 15:58:00,
2013-10-05 11:00:00,77.7,69.1,29.84,WSW,240,2.0,3.0,75,0.00,,,0.00,Wunderground v.1.15,2013-10-05 16:00:00,
2013-10-05 11:02:00,77.6,69.4,29.85,WSW,240,2.0,2.0,76,0.00,,,0.00,Wunderground v.1.15,2013-10-05 16:02:00,
2013-10-05 11:04:00,77.6,69.4,29.85,WSW,240,2.0,2.0,76,0.00,,,0.00,Wunderground v.1.15,2013-10-05 16:04:00,
2013-10-05 11:06:00,77.6,69.0,29.85,WSW,241,2.0,2.0,75,0.00,,,0.00,Wunderground v.1.15,2013-10-05 16:06:00,
2013-10-05 11:07:00,77.6,69.0,29.85,WSW,241,2.0,3.0,75,0.00,,,0.00,Wunderground v.1.15,2013-10-05 16:07:00,
2013-10-05 11:12:00,77.6,69.0,29.85,WSW,241,2.0,5.0,75,0.00,,,0.00,Wunderground v.1.15,2013-10-05 16:12:00,
2013-10-05 11:13:00,77.6,69.0,29.85,WSW,241,2.0,5.0,75,0.00,,,0.00,Wunderground v.1.15,2013-10-05 16:13:00,
2013-10-05 11:14:00,77.6,69.0,29.85,WSW,241,2.0,5.0,75,0.00,,,0.00,Wunderground v.1.15,2013-10-05 16:14:00,
2013-10-05 11:18:00,77.6,69.0,29.85,WSW,241,0.0,5.0,75,0.00,,,0.00,Wunderground v.1.15,2013-10-05 16:18:00,
2013-10-05 11:19:00,77.6,69.0,29.85,WSW,241,0.0,5.0,75,0.00,,,0.00,Wunderground v.1.15,2013-10-05 16:19:00,
2013-10-05 11:22:00,77.6,69.0,29.85,WSW,241,0.0,0.0,75,0.00,,,0.00,Wunderground v.1.15,2013-10-05 16:22:00,
2013-10-05 11:23:00,77.6,69.0,29.85,WSW,241,0.0,0.0,75,0.00,,,0.00,Wunderground v.1.15,2013-10-05 16:23:00,
2013-10-05 11:24:00,77.6,69.0,29.85,WSW,241,0.0,0.0,75,0.00,,,0.00,Wunderground v.1.15,2013-10-05 16:24:00,
2013-10-05 11:27:00,77.6,69.0,29.85,WSW,241,0.0,0.0,75,0.00,,,0.00,Wunderground v.1.15,2013-10-05 16:27:00,
2013-10-05 11:29:00,-999.9,-99.9,29.85,North,32767,-999.0,0.0,255,-99.99,,,0.00,Wunderground v.1.15,2013-10-05 16:29:00,
2013-10-05 11:32:00,-999.9,-99.9,29.87,North,32767,-999.0,0.0,255,-99.99,,,0.00,Wunderground v.1.15,2013-10-05 16:32:00,
2013-10-05 11:33:00,-999.9,-99.9,29.87,North,32767,-999.0,0.0,255,-99.99,,,0.00,Wunderground v.1.15,2013-10-05 16:33:00,
2013-10-05 11:35:00,-999.9,-99.9,29.87,North,32767,-999.0,0.0,255,-99.99,,,0.00,Wunderground v.1.15,2013-10-05 16:35:00,
2013-10-05 11:36:00,-999.9,-99.9,29.87,North,32767,-999.0,0.0,255,-99.99,,,0.00,Wunderground v.1.15,2013-10-05 16:36:00,
2013-10-05 11:38:00,-999.9,-99.9,29.87,North,32767,-999.0,0.0,255,-99.99,,,0.00,Wunderground v.1.15,2013-10-05 16:38:00,
2013-10-05 11:39:00,-999.9,-99.9,29.87,North,32767,-999.0,0.0,255,-99.99,,,0.00,Wunderground v.1.15,2013-10-05 16:39:00,
2013-10-05 11:42:00,-999.9,-99.9,29.87,North,32767,-999.0,0.0,255,-99.99,,,0.00,Wunderground v.1.15,2013-10-05 16:42:00,
2013-10-05 11:44:00,-999.9,-99.9,29.87,WSW,239,0.0,0.0,255,-99.99,,,0.00,Wunderground v.1.15,2013-10-05 16:44:00,
2013-10-05 11:45:00,-999.9,-99.9,29.87,WSW,239,0.0,0.0,255,-99.99,,,0.00,Wunderground v.1.15,2013-10-05 16:45:00,
2013-10-05 11:49:00,-999.9,-99.9,29.87,WSW,239,0.0,0.0,255,-99.99,,,0.00,Wunderground v.1.15,2013-10-05 16:49:00,
2013-10-05 11:52:00,81.4,-99.9,29.87,WSW,239,0.0,0.0,255,0.00,,,0.00,Wunderground v.1.15,2013-10-05 16:52:00,
2013-10-05 11:55:00,81.4,-99.9,29.87,WSW,237,0.0,0.0,255,0.00,,,0.00,Wunderground v.1.15,2013-10-05 16:55:00,
2013-10-05 11:56:00,81.4,-99.9,29.87,WSW,237,0.0,0.0,255,0.00,,,0.00,Wunderground v.1.15,2013-10-05 16:56:00,
2013-10-05 11:58:00,81.4,67.1,29.87,WSW,237,0.0,0.0,62,0.00,,,0.00,Wunderground v.1.15,2013-10-05 16:58:00,
2013-10-05 12:02:00,81.4,67.1,29.87,WSW,237,0.0,0.0,62,0.00,,,0.00,Wunderground v.1.15,2013-10-05 17:02:00,
2013-10-05 12:03:00,81.4,67.1,29.85,WSW,237,0.0,0.0,62,0.00,,,0.00,Wunderground v.1.15,2013-10-05 17:03:00,
2013-10-05 12:06:00,81.4,67.1,29.85,WSW,237,0.0,0.0,62,0.00,,,0.00,Wunderground v.1.15,2013-10-05 17:06:00,
2013-10-05 12:07:00,81.4,67.1,29.85,WSW,237,0.0,0.0,62,0.00,,,0.00,Wunderground v.1.15,2013-10-05 17:07:00,
2013-10-05 12:08:00,81.4,67.1,29.85,WSW,237,0.0,0.0,62,0.00,,,0.00,Wunderground v.1.15,2013-10-05 17:08:00,
2013-10-05 12:09:00,-999.9,-99.9,29.85,North,32767,-999.0,0.0,255,-99.99,,,0.00,Wunderground v.1.15,2013-10-05 17:09:00,
2013-10-05 12:12:00,-999.9,-99.9,29.85,North,32767,-999.0,0.0,255,-99.99,,,0.00,Wunderground v.1.15,2013-10-05 17:12:00,
2013-10-05 12:13:00,-999.9,-99.9,29.85,North,32767,-999.0,0.0,255,-99.99,,,0.00,Wunderground v.1.15,2013-10-05 17:13:00,
2013-10-05 12:15:00,-999.9,-99.9,29.85,North,32767,-999.0,0.0,255,-99.99,,,0.00,Wunderground v.1.15,2013-10-05 17:15:00,
2013-10-05 12:18:00,-999.9,-99.9,29.90,North,32767,-999.0,0.0,255,-99.99,,,0.00,Wunderground v.1.15,2013-10-05 17:18:00,
2013-10-05 12:19:00,-999.9,-99.9,29.90,North,32767,-999.0,0.0,255,-99.99,,,0.00,Wunderground v.1.15,2013-10-05 17:19:00,
2013-10-05 12:22:00,-999.9,-99.9,29.90,North,32767,-999.0,0.0,255,-99.99,,,0.00,Wunderground v.1.15,2013-10-05 17:22:00,
2013-10-05 12:23:00,-999.9,-99.9,29.90,North,32767,-999.0,0.0,255,-99.99,,,0.00,Wunderground v.1.15,2013-10-05 17:23:00,
2013-10-05 12:28:00,82.4,66.6,29.90,South,178,2.0,3.0,59,0.00,,,0.00,Wunderground v.1.15,2013-10-05 17:28:00,
2013-10-05 12:29:00,82.4,66.1,29.90,South,178,1.0,3.0,58,0.00,,,0.00,Wunderground v.1.15,2013-10-05 17:29:00,
2013-10-05 12:32:00,82.2,66.4,29.84,SW,220,1.0,1.0,59,0.00,,,0.00,Wunderground v.1.15,2013-10-05 17:32:00,
2013-10-05 12:36:00,82.4,66.6,29.84,West,267,2.0,6.0,59,0.00,,,0.00,Wunderground v.1.15,2013-10-05 17:36:00,
2013-10-05 12:38:00,82.4,66.6,29.84,West,267,2.0,6.0,59,0.00,,,0.00,Wunderground v.1.15,2013-10-05 17:38:00,
2013-10-05 12:39:00,82.6,66.3,29.84,SSW,195,2.0,6.0,58,0.00,,,0.00,Wunderground v.1.15,2013-10-05 17:39:00,
2013-10-05 12:42:00,82.8,66.0,29.84,SSW,195,1.0,1.0,57,0.00,,,0.00,Wunderground v.1.15,2013-10-05 17:42:00,
2013-10-05 12:43:00,82.8,66.0,29.84,SSW,195,1.0,1.0,57,0.00,,,0.00,Wunderground v.1.15,2013-10-05 17:43:00,
2013-10-05 12:45:00,83.4,66.6,29.84,SSW,195,1.0,1.0,57,0.00,,,0.00,Wunderground v.1.15,2013-10-05 17:45:00,
2013-10-05 12:47:00,83.6,65.7,29.84,SSW,195,1.0,1.0,55,0.00,,,0.00,Wunderground v.1.15,2013-10-05 17:47:00,
2013-10-05 12:52:00,84.0,66.6,29.84,SSW,195,0.0,1.0,56,0.00,,,0.00,Wunderground v.1.15,2013-10-05 17:52:00,
2013-10-05 12:55:00,84.5,67.1,29.84,SSW,195,0.0,1.0,56,0.00,,,0.00,Wunderground v.1.15,2013-10-05 17:55:00,
2013-10-05 12:57:00,84.9,67.5,29.84,SSW,195,0.0,1.0,56,0.00,,,0.00,Wunderground v.1.15,2013-10-05 17:57:00,
2013-10-05 12:58:00,85.3,67.3,29.84,SSW,196,0.0,1.0,55,0.00,,,0.00,Wunderground v.1.15,2013-10-05 17:58:00,
2013-10-05 13:02:00,85.7,67.1,29.82,SW,233,1.0,1.0,54,0.00,,,0.00,Wunderground v.1.15,2013-10-05 18:02:00,
2013-10-05 13:03:00,85.7,67.1,29.82,SW,233,1.0,2.0,54,0.00,,,0.00,Wunderground v.1.15,2013-10-05 18:03:00,
2013-10-05 13:04:00,85.7,67.1,29.82,SW,233,1.0,2.0,54,0.00,,,0.00,Wunderground v.1.15,2013-10-05 18:04:00,
2013-10-05 13:05:00,85.7,67.1,29.82,SW,234,1.0,2.0,54,0.00,,,0.00,Wunderground v.1.15,2013-10-05 18:05:00,
2013-10-05 13:08:00,85.9,67.9,29.82,SW,236,1.0,2.0,55,0.00,,,0.00,Wunderground v.1.15,2013-10-05 18:08:00,
2013-10-05 13:09:00,86.1,68.0,29.82,SW,234,1.0,2.0,55,0.00,,,0.00,Wunderground v.1.15,2013-10-05 18:09:00,
2013-10-05 13:12:00,86.1,67.5,29.82,SW,234,1.0,2.0,54,0.00,,,0.00,Wunderground v.1.15,2013-10-05 18:12:00,
2013-10-05 13:15:00,85.9,67.9,29.82,SW,234,0.0,2.0,55,0.00,,,0.00,Wunderground v.1.15,2013-10-05 18:15:00,
2013-10-05 13:16:00,85.7,67.7,29.82,SSE,168,0.0,2.0,55,0.00,,,0.00,Wunderground v.1.15,2013-10-05 18:16:00,
2013-10-05 13:17:00,85.5,67.0,29.82,South,174,1.0,2.0,54,0.00,,,0.00,Wunderground v.1.15,2013-10-05 18:17:00,
2013-10-05 13:18:00,85.3,67.3,29.82,South,176,1.0,2.0,55,0.00,,,0.00,Wunderground v.1.15,2013-10-05 18:18:00,
2013-10-05 13:22:00,84.9,66.9,29.82,South,176,1.0,3.0,55,0.00,,,0.00,Wunderground v.1.15,2013-10-05 18:22:00,
2013-10-05 13:23:00,84.7,66.7,29.82,SE,136,1.0,3.0,55,0.00,,,0.00,Wunderground v.1.15,2013-10-05 18:23:00,
2013-10-05 13:24:00,84.5,66.0,29.82,SE,136,1.0,3.0,54,0.00,,,0.00,Wunderground v.1.15,2013-10-05 18:24:00,
2013-10-05 13:27:00,84.1,65.7,29.82,SSE,151,2.0,3.0,54,0.00,,,0.00,Wunderground v.1.15,2013-10-05 18:27:00,
2013-10-05 13:29:00,84.0,66.6,29.82,SSW,198,1.0,3.0,56,0.00,,,0.00,Wunderground v.1.15,2013-10-05 18:29:00,
2013-10-05 13:32:00,84.0,65.6,29.82,SW,217,2.0,6.0,54,0.00,,,0.00,Wunderground v.1.15,2013-10-05 18:32:00,
2013-10-05 13:33:00,83.8,65.4,29.82,SW,217,2.0,6.0,54,0.00,,,0.00,Wunderground v.1.15,2013-10-05 18:33:00,
2013-10-05 13:35:00,83.8,65.9,29.82,SW,217,3.0,6.0,55,0.00,,,0.00,Wunderground v.1.15,2013-10-05 18:35:00,
2013-10-05 13:36:00,83.6,65.7,29.82,SW,217,3.0,6.0,55,0.00,,,0.00,Wunderground v.1.15,2013-10-05 18:36:00,
2013-10-05 13:42:00,84.3,65.8,29.82,SW,217,2.0,2.0,54,0.00,,,0.00,Wunderground v.1.15,2013-10-05 18:42:00,
2013-10-05 13:43:00,84.5,65.5,29.82,SW,217,1.0,2.0,53,0.00,,,0.00,Wunderground v.1.15,2013-10-05 18:43:00,
2013-10-05 13:44:00,84.7,65.1,29.82,SW,217,1.0,2.0,52,0.00,,,0.00,Wunderground v.1.15,2013-10-05 18:44:00,
2013-10-05 13:45:00,84.7,65.7,29.82,SW,217,1.0,2.0,53,0.00,,,0.00,Wunderground v.1.15,2013-10-05 18:45:00,
2013-10-05 13:48:00,85.7,66.0,29.81,SW,216,0.0,2.0,52,0.00,,,0.00,Wunderground v.1.15,2013-10-05 18:48:00,
2013-10-05 13:49:00,86.1,66.4,29.81,SW,217,0.0,2.0,52,0.00,,,0.00,Wunderground v.1.15,2013-10-05 18:49:00,
2013-10-05 13:52:00,86.3,66.0,29.81,SE,136,0.0,1.0,51,0.00,,,0.00,Wunderground v.1.15,2013-10-05 18:52:00,
2013-10-05 13:54:00,86.5,66.2,29.81,SSW,203,0.0,1.0,51,0.00,,,0.00,Wunderground v.1.15,2013-10-05 18:54:00,
2013-10-05 13:55:00,86.7,66.4,29.81,SSW,203,0.0,1.0,51,0.00,,,0.00,Wunderground v.1.15,2013-10-05 18:55:00,
2013-10-05 13:56:00,86.7,66.4,29.81,SE,136,1.0,5.0,51,0.00,,,0.00,Wunderground v.1.15,2013-10-05 18:56:00,
2013-10-05 13:58:00,86.5,65.7,29.81,SSE,150,1.0,5.0,50,0.00,,,0.00,Wunderground v.1.15,2013-10-05 18:58:00,
2013-10-05 13:59:00,86.3,65.5,29.81,SSE,151,1.0,5.0,50,0.00,,,0.00,Wunderground v.1.15,2013-10-05 18:59:00,
2013-10-05 14:01:00,85.9,65.1,29.81,SE,130,2.0,2.0,50,0.00,,,0.00,Wunderground v.1.15,2013-10-05 19:01:00,
2013-10-05 14:03:00,85.9,66.2,29.80,SSE,155,2.0,2.0,52,0.00,,,0.00,Wunderground v.1.15,2013-10-05 19:03:00,
2013-10-05 14:06:00,86.3,66.6,29.80,ESE,109,1.0,2.0,52,0.00,,,0.00,Wunderground v.1.15,2013-10-05 19:06:00,
2013-10-05 14:07:00,86.3,66.6,29.80,ESE,110,1.0,2.0,52,0.00,,,0.00,Wunderground v.1.15,2013-10-05 19:07:00,
2013-10-05 14:11:00,87.0,66.1,29.80,SSE,158,1.0,3.0,50,0.00,,,0.00,Wunderground v.1.15,2013-10-05 19:11:00,
2013-10-05 14:12:00,87.0,66.1,29.80,SSE,158,1.0,3.0,50,0.00,,,0.00,Wunderground v.1.15,2013-10-05 19:12:00,
2013-10-05 14:14:00,86.5,65.7,29.80,ESE,123,1.0,6.0,50,0.00,,,0.00,Wunderground v.1.15,2013-10-05 19:14:00,
2013-10-05 14:15:00,86.3,64.9,29.80,SSE,150,2.0,6.0,49,0.00,,,0.00,Wunderground v.1.15,2013-10-05 19:15:00,
2013-10-05 14:18:00,85.7,63.8,29.80,SSE,150,2.0,6.0,48,0.00,,,0.00,Wunderground v.1.15,2013-10-05 19:18:00,
2013-10-05 14:21:00,85.9,64.5,29.80,SSE,150,2.0,2.0,49,0.00,,,0.00,Wunderground v.1.15,2013-10-05 19:21:00,
2013-10-05 14:22:00,85.9,64.5,29.80,SSE,150,2.0,2.0,49,0.00,,,0.00,Wunderground v.1.15,2013-10-05 19:22:00,
2013-10-05 14:23:00,85.9,64.5,29.80,ESE,106,2.0,3.0,49,0.00,,,0.00,Wunderground v.1.15,2013-10-05 19:23:00,
2013-10-05 14:25:00,85.7,64.3,29.80,ESE,106,2.0,3.0,49,0.00,,,0.00,Wunderground v.1.15,2013-10-05 19:25:00,
2013-10-05 14:27:00,85.3,64.0,29.80,ESE,106,2.0,4.0,49,0.00,,,0.00,Wunderground v.1.15,2013-10-05 19:27:00,
2013-10-05 14:31:00,85.1,64.4,29.80,NNE,23,2.0,2.0,50,0.00,,,0.00,Wunderground v.1.15,2013-10-05 19:31:00,
2013-10-05 14:32:00,85.1,64.4,29.79,NNE,23,2.0,2.0,50,0.00,,,0.00,Wunderground v.1.15,2013-10-05 19:32:00,
2013-10-05 14:33:00,85.3,64.6,29.79,NNE,23,2.0,2.0,50,0.00,,,0.00,Wunderground v.1.15,2013-10-05 19:33:00,
2013-10-05 14:35:00,85.5,64.7,29.79,NNE,23,1.0,2.0,50,0.00,,,0.00,Wunderground v.1.15,2013-10-05 19:35:00,
2013-10-05 14:38:00,86.1,65.3,29.79,SSW,198,1.0,2.0,50,0.00,,,0.00,Wunderground v.1.15,2013-10-05 19:38:00,
2013-10-05 14:41:00,86.1,65.3,29.79,South,189,1.0,2.0,50,0.00,,,0.00,Wunderground v.1.15,2013-10-05 19:41:00,
2013-10-05 14:42:00,86.1,65.3,29.79,South,189,1.0,2.0,50,0.00,,,0.00,Wunderground v.1.15,2013-10-05 19:42:00,
2013-10-05 14:44:00,86.1,64.1,29.79,South,189,1.0,2.0,48,0.00,,,0.00,Wunderground v.1.15,2013-10-05 19:44:00,
2013-10-05 14:46:00,86.1,64.7,29.79,SSW,192,1.0,2.0,49,0.00,,,0.00,Wunderground v.1.15,2013-10-05 19:46:00,
2013-10-05 14:47:00,86.3,64.9,29.78,SSW,192,1.0,3.0,49,0.00,,,0.00,Wunderground v.1.15,2013-10-05 19:47:00,
2013-10-05 14:48:00,86.3,64.9,29.78,SSW,192,1.0,3.0,49,0.00,,,0.00,Wunderground v.1.15,2013-10-05 19:48:00,
2013-10-05 14:52:00,87.0,63.7,29.78,SSW,192,1.0,1.0,46,0.00,,,0.00,Wunderground v.1.15,2013-10-05 19:52:00,
2013-10-05 14:53:00,87.2,63.3,29.78,South,191,1.0,1.0,45,0.00,,,0.00,Wunderground v.1.15,2013-10-05 19:53:00,
2013-10-05 14:54:00,87.2,63.3,29.78,South,191,1.0,1.0,45,0.00,,,0.00,Wunderground v.1.15,2013-10-05 19:54:00,
2013-10-05 14:55:00,87.2,62.6,29.78,South,191,1.0,1.0,44,0.00,,,0.00,Wunderground v.1.15,2013-10-05 19:55:00,
2013-10-05 14:59:00,88.0,64.0,29.78,South,191,0.0,1.0,45,0.00,,,0.00,Wunderground v.1.15,2013-10-05 19:59:00,
2013-10-05 15:01:00,88.4,63.1,29.78,South,191,0.0,0.0,43,0.00,,,0.00,Wunderground v.1.15,2013-10-05 20:01:00,
2013-10-05 15:04:00,88.4,63.1,29.77,SSW,192,0.0,3.0,43,0.00,,,0.00,Wunderground v.1.15,2013-10-05 20:04:00,
2013-10-05 15:07:00,88.4,64.4,29.77,SW,224,1.0,3.0,45,0.00,,,0.00,Wunderground v.1.15,2013-10-05 20:07:00,
2013-10-05 15:09:00,88.6,65.2,29.77,SW,224,0.0,3.0,46,0.00,,,0.00,Wunderground v.1.15,2013-10-05 20:09:00,
2013-10-05 15:13:00,88.8,64.7,29.77,SSE,150,1.0,1.0,45,0.00,,,0.00,Wunderground v.1.15,2013-10-05 20:13:00,
2013-10-05 15:14:00,88.6,63.9,29.77,SSE,150,1.0,3.0,44,0.00,,,0.00,Wunderground v.1.15,2013-10-05 20:14:00,
2013-10-05 15:16:00,88.8,64.1,29.77,SSE,150,1.0,3.0,44,0.00,,,0.00,Wunderground v.1.15,2013-10-05 20:16:00,
2013-10-05 15:17:00,88.8,63.4,29.76,SSE,151,1.0,3.0,43,0.00,,,0.00,Wunderground v.1.15,2013-10-05 20:17:00,
2013-10-05 15:18:00,89.0,62.9,29.76,South,169,1.0,3.0,42,0.00,,,0.00,Wunderground v.1.15,2013-10-05 20:18:00,
2013-10-05 15:19:00,89.0,63.6,29.76,South,169,1.0,3.0,43,0.00,,,0.00,Wunderground v.1.15,2013-10-05 20:19:00,
2013-10-05 15:20:00,89.3,63.9,29.76,SSW,199,1.0,3.0,43,0.00,,,0.00,Wunderground v.1.15,2013-10-05 20:20:00,
2013-10-05 15:23:00,89.3,62.5,29.76,SSW,199,1.0,1.0,41,0.00,,,0.00,Wunderground v.1.15,2013-10-05 20:23:00,
2013-10-05 15:24:00,89.3,63.2,29.76,SSW,199,1.0,1.0,42,0.00,,,0.00,Wunderground v.1.15,2013-10-05 20:24:00,
2013-10-05 15:25:00,89.3,63.2,29.76,SSW,199,1.0,1.0,42,0.00,,,0.00,Wunderground v.1.15,2013-10-05 20:25:00,
2013-10-05 15:26:00,89.3,63.2,29.76,SSW,199,1.0,2.0,42,0.00,,,0.00,Wunderground v.1.15,2013-10-05 20:26:00,
2013-10-05 15:29:00,89.0,63.6,29.76,SW,216,1.0,3.0,43,0.00,,,0.00,Wunderground v.1.15,2013-10-05 20:29:00,
2013-10-05 15:30:00,89.0,62.9,29.76,West,263,1.0,6.0,42,0.00,,,0.00,Wunderground v.1.15,2013-10-05 20:30:00,
2013-10-05 15:33:00,88.4,63.7,29.76,West,263,2.0,2.0,44,0.00,,,0.00,Wunderground v.1.15,2013-10-05 20:33:00,
2013-10-05 15:34:00,88.2,64.2,29.76,West,263,2.0,2.0,45,0.00,,,0.00,Wunderground v.1.15,2013-10-05 20:34:00,
2013-10-05 15:35:00,88.0,64.6,29.76,West,263,2.0,2.0,46,0.00,,,0.00,Wunderground v.1.15,2013-10-05 20:35:00,
2013-10-05 15:37:00,88.0,63.4,29.76,West,263,2.0,2.0,44,0.00,,,0.00,Wunderground v.1.15,2013-10-05 20:37:00,
2013-10-05 15:39:00,88.0,64.0,29.76,WSW,248,2.0,3.0,45,0.00,,,0.00,Wunderground v.1.15,2013-10-05 20:39:00,
2013-10-05 15:40:00,88.2,64.8,29.76,SSW,198,2.0,3.0,46,0.00,,,0.00,Wunderground v.1.15,2013-10-05 20:40:00,
2013-10-05 15:43:00,88.6,63.9,29.76,SSW,198,1.0,1.0,44,0.00,,,0.00,Wunderground v.1.15,2013-10-05 20:43:00,
2013-10-05 15:45:00,88.8,64.1,29.76,SE,134,1.0,4.0,44,0.00,,,0.00,Wunderground v.1.15,2013-10-05 20:45:00,
2013-10-05 15:49:00,88.4,64.4,29.75,South,191,2.0,6.0,45,0.00,,,0.00,Wunderground v.1.15,2013-10-05 20:49:00,
2013-10-05 15:50:00,88.4,64.4,29.75,SSW,203,2.0,6.0,45,0.00,,,0.00,Wunderground v.1.15,2013-10-05 20:50:00,
2013-10-05 15:53:00,88.6,63.2,29.75,SSW,202,3.0,3.0,43,0.00,,,0.00,Wunderground v.1.15,2013-10-05 20:53:00,
2013-10-05 15:54:00,88.4,63.1,29.75,SSW,202,3.0,3.0,43,0.00,,,0.00,Wunderground v.1.15,2013-10-05 20:54:00,
2013-10-05 15:55:00,88.6,63.2,29.75,SSW,202,3.0,3.0,43,0.00,,,0.00,Wunderground v.1.15,2013-10-05 20:55:00,
2013-10-05 15:56:00,88.8,64.1,29.75,SSW,202,2.0,3.0,44,0.00,,,0.00,Wunderground v.1.15,2013-10-05 20:56:00,
2013-10-05 15:57:00,88.8,62.7,29.75,South,178,2.0,3.0,42,0.00,,,0.00,Wunderground v.1.15,2013-10-05 20:57:00,
2013-10-05 15:58:00,88.8,64.1,29.75,South,178,2.0,3.0,44,0.00,,,0.00,Wunderground v.1.15,2013-10-05 20:58:00,
2013-10-05 15:59:00,88.8,62.7,29.75,South,178,1.0,3.0,42,0.00,,,0.00,Wunderground v.1.15,2013-10-05 20:59:00,
2013-10-05 16:00:00,89.0,63.6,29.75,South,178,1.0,3.0,43,0.00,,,0.00,Wunderground v.1.15,2013-10-05 21:00:00,
2013-10-05 16:03:00,88.8,64.1,29.75,SSE,164,1.0,3.0,44,0.00,,,0.00,Wunderground v.1.15,2013-10-05 21:03:00,
2013-10-05 16:04:00,88.8,64.7,29.75,SSE,164,1.0,4.0,45,0.00,,,0.00,Wunderground v.1.15,2013-10-05 21:04:00,
2013-10-05 16:07:00,88.4,64.4,29.75,ESE,120,1.0,6.0,45,0.00,,,0.00,Wunderground v.1.15,2013-10-05 21:07:00,
2013-10-05 16:08:00,88.2,64.2,29.75,ESE,121,2.0,6.0,45,0.00,,,0.00,Wunderground v.1.15,2013-10-05 21:08:00,
2013-10-05 16:10:00,87.8,63.8,29.75,SE,131,2.0,6.0,45,0.00,,,0.00,Wunderground v.1.15,2013-10-05 21:10:00,
2013-10-05 16:12:00,87.6,63.6,29.75,SE,136,2.0,2.0,45,0.00,,,0.00,Wunderground v.1.15,2013-10-05 21:12:00,
2013-10-05 16:13:00,87.4,64.7,29.75,SE,137,2.0,6.0,47,0.00,,,0.00,Wunderground v.1.15,2013-10-05 21:13:00,
2013-10-05 16:14:00,87.2,64.5,29.75,SE,137,3.0,6.0,47,0.00,,,0.00,Wunderground v.1.15,2013-10-05 21:14:00,
2013-10-05 16:18:00,87.0,65.5,29.75,ENE,64,2.0,6.0,49,0.00,,,0.00,Wunderground v.1.15,2013-10-05 21:18:00,
2013-10-05 16:19:00,87.0,65.5,29.75,ENE,69,2.0,6.0,49,0.00,,,0.00,Wunderground v.1.15,2013-10-05 21:19:00,
2013-10-05 16:20:00,86.7,65.3,29.75,East,95,2.0,6.0,49,0.00,,,0.00,Wunderground v.1.15,2013-10-05 21:20:00,
2013-10-05 16:23:00,86.5,65.7,29.75,ENE,69,2.0,2.0,50,0.00,,,0.00,Wunderground v.1.15,2013-10-05 21:23:00,
2013-10-05 16:24:00,86.5,65.1,29.75,NE,44,1.0,6.0,49,0.00,,,0.00,Wunderground v.1.15,2013-10-05 21:24:00,
2013-10-05 16:27:00,86.5,65.1,29.75,East,93,2.0,6.0,49,0.00,,,0.00,Wunderground v.1.15,2013-10-05 21:27:00,
2013-10-05 16:28:00,86.5,65.1,29.75,East,96,2.0,6.0,49,0.00,,,0.00,Wunderground v.1.15,2013-10-05 21:28:00,
2013-10-05 16:30:00,86.5,65.1,29.75,SE,133,2.0,6.0,49,0.00,,,0.00,Wunderground v.1.15,2013-10-05 21:30:00,
2013-10-05 16:33:00,86.5,64.5,29.75,ESE,116,2.0,2.0,48,0.00,,,0.00,Wunderground v.1.15,2013-10-05 21:33:00,
2013-10-05 16:34:00,86.5,65.7,29.75,ESE,103,3.0,7.0,50,0.00,,,0.00,Wunderground v.1.15,2013-10-05 21:34:00,
2013-10-05 16:36:00,86.3,64.3,29.75,ESE,123,3.0,7.0,48,0.00,,,0.00,Wunderground v.1.15,2013-10-05 21:36:00,
2013-10-05 16:37:00,86.3,64.3,29.75,ESE,123,3.0,7.0,48,0.00,,,0.00,Wunderground v.1.15,2013-10-05 21:37:00,
2013-10-05 16:40:00,86.3,64.3,29.75,ESE,123,3.0,7.0,48,0.00,,,0.00,Wunderground v.1.15,2013-10-05 21:40:00,
2013-10-05 16:42:00,86.1,64.7,29.75,ESE,123,2.0,2.0,49,0.00,,,0.00,Wunderground v.1.15,2013-10-05 21:42:00,
2013-10-05 16:45:00,86.1,64.7,29.75,SE,130,2.0,2.0,49,0.00,,,0.00,Wunderground v.1.15,2013-10-05 21:45:00,
2013-10-05 16:47:00,86.1,64.7,29.75,SE,130,1.0,2.0,49,0.00,,,0.00,Wunderground v.1.15,2013-10-05 21:47:00,
2013-10-05 16:52:00,86.3,64.9,29.75,ESE,110,1.0,1.0,49,0.00,,,0.00,Wunderground v.1.15,2013-10-05 21:52:00,
2013-10-05 16:54:00,86.3,64.9,29.75,ESE,110,1.0,1.0,49,0.00,,,0.00,Wunderground v.1.15,2013-10-05 21:54:00,
2013-10-05 16:55:00,86.3,64.9,29.75,ESE,110,0.0,1.0,49,0.00,,,0.00,Wunderground v.1.15,2013-10-05 21:55:00,
2013-10-05 16:58:00,86.1,64.7,29.75,East,95,1.0,2.0,49,0.00,,,0.00,Wunderground v.1.15,2013-10-05 21:58:00,
2013-10-05 17:00:00,86.1,64.7,29.75,ENE,64,1.0,2.0,49,0.00,,,0.00,Wunderground v.1.15,2013-10-05 22:00:00,
2013-10-05 17:02:00,86.1,64.7,29.75,ENE,64,1.0,1.0,49,0.00,,,0.00,Wunderground v.1.15,2013-10-05 22:02:00,
2013-10-05 17:06:00,86.1,65.3,29.75,NE,52,1.0,1.0,50,0.00,,,0.00,Wunderground v.1.15,2013-10-05 22:06:00,
2013-10-05 17:07:00,86.1,65.3,29.75,NE,52,1.0,1.0,50,0.00,,,0.00,Wunderground v.1.15,2013-10-05 22:07:00,
2013-10-05 17:08:00,86.1,64.7,29.75,East,89,1.0,5.0,49,0.00,,,0.00,Wunderground v.1.15,2013-10-05 22:08:00,
2013-10-05 17:10:00,86.1,64.7,29.75,East,82,1.0,5.0,49,0.00,,,0.00,Wunderground v.1.15,2013-10-05 22:10:00,
2013-10-05 17:14:00,86.1,64.7,29.75,East,82,2.0,2.0,49,0.00,,,0.00,Wunderground v.1.15,2013-10-05 22:14:00,
2013-10-05 17:15:00,86.1,64.7,29.75,NNE,32,0.0,2.0,49,0.00,,,0.00,Wunderground v.1.15,2013-10-05 22:15:00,
2013-10-05 17:17:00,86.1,64.7,29.75,NNE,32,0.0,2.0,49,0.00,,,0.00,Wunderground v.1.15,2013-10-05 22:17:00,
2013-10-05 17:20:00,86.1,64.7,29.75,NNE,32,0.0,2.0,49,0.00,,,0.00,Wunderground v.1.15,2013-10-05 22:20:00,
2013-10-05 17:22:00,86.1,64.7,29.75,NNE,32,0.0,0.0,49,0.00,,,0.00,Wunderground v.1.15,2013-10-05 22:22:00,
2013-10-05 17:24:00,86.1,64.7,29.75,NNE,32,0.0,0.0,49,0.00,,,0.00,Wunderground v.1.15,2013-10-05 22:24:00,
2013-10-05 17:25:00,86.1,64.7,29.75,NNE,32,0.0,0.0,49,0.00,,,0.00,Wunderground v.1.15,2013-10-05 22:25:00,
2013-10-05 17:26:00,86.1,64.7,29.75,NNE,32,0.0,0.0,49,0.00,,,0.00,Wunderground v.1.15,2013-10-05 22:26:00,
2013-10-05 17:30:00,-999.9,-99.9,29.75,North,32767,-999.0,0.0,255,-99.99,,,0.00,Wunderground v.1.15,2013-10-05 22:30:00,
2013-10-05 17:32:00,-999.9,-99.9,29.81,North,32767,-999.0,0.0,255,-99.99,,,0.00,Wunderground v.1.15,2013-10-05 22:32:00,
2013-10-05 17:33:00,-999.9,-99.9,29.81,North,32767,-999.0,0.0,255,-99.99,,,0.00,Wunderground v.1.15,2013-10-05 22:33:00,
2013-10-05 17:34:00,-999.9,-99.9,29.81,North,32767,-999.0,0.0,255,-99.99,,,0.00,Wunderground v.1.15,2013-10-05 22:34:00,
2013-10-05 17:36:00,-999.9,-99.9,29.81,North,32767,-999.0,0.0,255,-99.99,,,0.00,Wunderground v.1.15,2013-10-05 22:36:00,
2013-10-05 17:39:00,-999.9,-99.9,29.81,North,32767,-999.0,0.0,255,-99.99,,,0.00,Wunderground v.1.15,2013-10-05 22:39:00,
2013-10-05 17:43:00,-999.9,-99.9,29.81,North,32767,-999.0,0.0,255,-99.99,,,0.00,Wunderground v.1.15,2013-10-05 22:43:00,
2013-10-05 17:45:00,-999.9,-99.9,29.81,North,32767,-999.0,0.0,255,-99.99,,,0.00,Wunderground v.1.15,2013-10-05 22:45:00,
2013-10-05 17:48:00,-999.9,-99.9,29.81,North,32767,-999.0,0.0,255,-99.99,,,0.00,Wunderground v.1.15,2013-10-05 22:48:00,
2013-10-05 17:52:00,-999.9,-99.9,29.81,North,32767,-999.0,0.0,255,-99.99,,,0.00,Wunderground v.1.15,2013-10-05 22:52:00,
2013-10-05 17:53:00,-999.9,-99.9,29.81,North,32767,-999.0,0.0,255,-99.99,,,0.00,Wunderground v.1.15,2013-10-05 22:53:00,
2013-10-05 17:55:00,-999.9,-99.9,29.81,North,32767,-999.0,0.0,255,-99.99,,,0.00,Wunderground v.1.15,2013-10-05 22:55:00,
2013-10-05 17:58:00,-999.9,-99.9,29.81,North,32767,-999.0,0.0,255,-99.99,,,0.00,Wunderground v.1.15,2013-10-05 22:58:00,
2013-10-05 17:59:00,-999.9,-99.9,29.81,North,32767,-999.0,0.0,255,-99.99,,,0.00,Wunderground v.1.15,2013-10-05 22:59:00,
2013-10-05 18:02:00,-999.9,-99.9,29.81,North,32767,-999.0,0.0,255,-99.99,,,0.00,Wunderground v.1.15,2013-10-05 23:02:00,
2013-10-05 18:03:00,-999.9,-99.9,29.81,North,32767,-999.0,0.0,255,-99.99,,,0.00,Wunderground v.1.15,2013-10-05 23:03:00,
2013-10-05 18:04:00,-999.9,-99.9,29.81,North,32767,-999.0,0.0,255,-99.99,,,0.00,Wunderground v.1.15,2013-10-05 23:04:00,
2013-10-05 18:06:00,-999.9,-99.9,29.81,North,32767,-999.0,0.0,255,-99.99,,,0.00,Wunderground v.1.15,2013-10-05 23:06:00,
2013-10-05 18:07:00,-999.9,-99.9,29.81,North,32767,-999.0,0.0,255,-99.99,,,0.00,Wunderground v.1.15,2013-10-05 23:07:00,
2013-10-05 18:08:00,-999.9,-99.9,29.81,North,32767,-999.0,0.0,255,-99.99,,,0.00,Wunderground v.1.15,2013-10-05 23:08:00,
2013-10-05 18:12:00,-999.9,-99.9,29.81,North,32767,-999.0,0.0,255,-99.99,,,0.00,Wunderground v.1.15,2013-10-05 23:12:00,
2013-10-05 18:13:00,-999.9,-99.9,29.81,North,32767,-999.0,0.0,255,-99.99,,,0.00,Wunderground v.1.15,2013-10-05 23:13:00,
2013-10-05 18:14:00,-999.9,-99.9,29.81,North,32767,-999.0,0.0,255,-99.99,,,0.00,Wunderground v.1.15,2013-10-05 23:14:00,
2013-10-05 18:16:00,-999.9,-99.9,29.81,North,32767,-999.0,0.0,255,-99.99,,,0.00,Wunderground v.1.15,2013-10-05 23:16:00,
2013-10-05 18:19:00,81.6,62.3,29.79,NNE,24,6.0,7.0,52,0.00,,,0.00,Wunderground v.1.15,2013-10-05 23:19:00,
2013-10-05 18:20:00,81.1,61.8,29.79,North,353,8.0,8.0,52,0.00,,,0.00,Wunderground v.1.15,2013-10-05 23:20:00,
2013-10-05 18:24:00,80.5,61.3,29.79,North,6,8.0,12.0,52,0.00,,,0.00,Wunderground v.1.15,2013-10-05 23:24:00,
2013-10-05 18:25:00,80.5,61.3,29.79,NNW,340,8.0,12.0,52,0.00,,,0.00,Wunderground v.1.15,2013-10-05 23:25:00,
2013-10-05 18:27:00,79.9,60.7,29.79,NE,37,9.0,12.0,52,0.00,,,0.00,Wunderground v.1.15,2013-10-05 23:27:00,
2013-10-05 18:28:00,79.6,60.4,29.79,NNE,28,9.0,12.0,52,0.00,,,0.00,Wunderground v.1.15,2013-10-05 23:28:00,
2013-10-05 18:30:00,79.2,60.1,29.79,NE,34,9.0,12.0,52,0.00,,,0.00,Wunderground v.1.15,2013-10-05 23:30:00,
2013-10-05 18:33:00,78.8,59.7,29.80,NE,48,10.0,12.0,52,0.00,,,0.00,Wunderground v.1.15,2013-10-05 23:33:00,
2013-10-05 18:34:00,78.8,59.7,29.80,NNE,18,10.0,13.0,52,0.00,,,0.00,Wunderground v.1.15,2013-10-05 23:34:00,
2013-10-05 18:37:00,78.5,60.5,29.80,North,7,9.0,13.0,54,0.00,,,0.00,Wunderground v.1.15,2013-10-05 23:37:00,
2013-10-05 18:39:00,78.3,60.3,29.80,NNE,23,9.0,13.0,54,0.00,,,0.00,Wunderground v.1.15,2013-10-05 23:39:00,
2013-10-05 18:40:00,78.1,60.1,29.80,North,11,9.0,13.0,54,0.00,,,0.00,Wunderground v.1.15,2013-10-05 23:40:00,
2013-10-05 18:42:00,78.1,60.6,29.80,North,350,9.0,9.0,55,0.00,,,0.00,Wunderground v.1.15,2013-10-05 23:42:00,
2013-10-05 18:43:00,77.9,60.4,29.80,North,352,8.0,9.0,55,0.00,,,0.00,Wunderground v.1.15,2013-10-05 23:43:00,
2013-10-05 18:45:00,77.9,59.9,29.80,North,357,8.0,9.0,54,0.00,,,0.00,Wunderground v.1.15,2013-10-05 23:45:00,
2013-10-05 18:46:00,77.9,59.9,29.80,North,357,8.0,9.0,54,0.00,,,0.00,Wunderground v.1.15,2013-10-05 23:46:00,
2013-10-05 18:49:00,77.6,59.6,29.81,NNE,25,8.0,12.0,54,0.00,,,0.00,Wunderground v.1.15,2013-10-05 23:49:00,
2013-10-05 18:55:00,77.2,59.3,29.81,North,6,10.0,18.0,54,0.00,,,0.00,Wunderground v.1.15,2013-10-05 23:55:00,
2013-10-05 18:57:00,77.0,59.1,29.81,North,7,12.0,18.0,54,0.00,,,0.00,Wunderground v.1.15,2013-10-05 23:57:00,
2013-10-05 18:58:00,76.8,58.9,29.81,North,0,11.0,18.0,54,0.00,,,0.00,Wunderground v.1.15,2013-10-05 23:58:00,
2013-10-05 19:02:00,76.5,59.1,29.81,NNE,16,10.0,10.0,55,0.00,,,0.00,Wunderground v.1.15,2013-10-06 00:02:00,
2013-10-05 19:04:00,76.5,59.1,29.81,NE,44,10.0,10.0,55,0.00,,,0.00,Wunderground v.1.15,2013-10-06 00:04:00,
2013-10-05 19:06:00,76.3,58.9,29.81,NNE,28,9.0,10.0,55,0.00,,,0.00,Wunderground v.1.15,2013-10-06 00:06:00,
2013-10-05 19:07:00,76.3,58.9,29.81,NW,316,8.0,10.0,55,0.00,,,0.00,Wunderground v.1.15,2013-10-06 00:07:00,
2013-10-05 19:09:00,76.1,58.8,29.81,North,0,8.0,10.0,55,0.00,,,0.00,Wunderground v.1.15,2013-10-06 00:09:00,
2013-10-05 19:12:00,75.8,58.5,29.81,North,10,8.0,17.0,55,0.00,,,0.00,Wunderground v.1.15,2013-10-06 00:12:00,
2013-10-05 19:14:00,75.6,57.8,29.81,NNE,24,8.0,17.0,54,0.00,,,0.00,Wunderground v.1.15,2013-10-06 00:14:00,
2013-10-05 19:17:00,75.4,57.6,29.81,North,359,9.0,17.0,54,0.00,,,0.00,Wunderground v.1.15,2013-10-06 00:17:00,
2013-10-05 19:18:00,75.3,57.5,29.82,North,0,9.0,17.0,54,0.00,,,0.00,Wunderground v.1.15,2013-10-06 00:18:00,
2013-10-05 19:22:00,75.1,57.8,29.82,North,359,8.0,8.0,55,0.00,,,0.00,Wunderground v.1.15,2013-10-06 00:22:00,
2013-10-05 19:26:00,74.7,57.5,29.82,North,0,8.0,11.0,55,0.00,,,0.00,Wunderground v.1.15,2013-10-06 00:26:00,
2013-10-05 19:28:00,74.6,57.4,29.82,NNW,342,8.0,11.0,55,0.00,,,0.00,Wunderground v.1.15,2013-10-06 00:28:00,
2013-10-05 19:29:00,74.6,57.4,29.82,North,11,8.0,11.0,55,0.00,,,0.00,Wunderground v.1.15,2013-10-06 00:29:00,
2013-10-05 19:32:00,74.2,56.5,29.83,North,0,9.0,9.0,54,0.00,,,0.00,Wunderground v.1.15,2013-10-06 00:32:00,
2013-10-05 19:34:00,74.2,56.5,29.83,NNW,347,9.0,9.0,54,0.00,,,0.00,Wunderground v.1.15,2013-10-06 00:34:00,
2013-10-05 19:35:00,74.0,56.3,29.83,North,0,9.0,9.0,54,0.00,,,0.00,Wunderground v.1.15,2013-10-06 00:35:00,
2013-10-05 19:40:00,73.7,55.5,29.83,North,3,8.0,9.0,53,0.00,,,0.00,Wunderground v.1.15,2013-10-06 00:40:00,
2013-10-05 19:42:00,73.5,55.3,29.83,North,359,8.0,8.0,53,0.00,,,0.00,Wunderground v.1.15,2013-10-06 00:42:00,
2013-10-05 19:44:00,73.3,55.1,29.83,North,0,9.0,18.0,53,0.00,,,0.00,Wunderground v.1.15,2013-10-06 00:44:00,
2013-10-05 19:45:00,73.2,55.0,29.83,NNW,343,9.0,18.0,53,0.00,,,0.00,Wunderground v.1.15,2013-10-06 00:45:00,
2013-10-05 19:47:00,73.0,54.9,29.84,North,1,9.0,18.0,53,0.00,,,0.00,Wunderground v.1.15,2013-10-06 00:47:00,
2013-10-05 19:49:00,73.0,54.3,29.84,North,357,9.0,18.0,52,0.00,,,0.00,Wunderground v.1.15,2013-10-06 00:49:00,
2013-10-05 19:52:00,72.7,54.6,29.84,North,10,9.0,9.0,53,0.00,,,0.00,Wunderground v.1.15,2013-10-06 00:52:00,
2013-10-05 19:54:00,72.5,54.4,29.84,NNW,339,9.0,9.0,53,0.00,,,0.00,Wunderground v.1.15,2013-10-06 00:54:00,
2013-10-05 19:55:00,72.5,54.4,29.84,North,0,9.0,11.0,53,0.00,,,0.00,Wunderground v.1.15,2013-10-06 00:55:00,
2013-10-05 19:56:00,72.5,54.4,29.84,NE,38,9.0,14.0,53,0.00,,,0.00,Wunderground v.1.15,2013-10-06 00:56:00,
2013-10-05 19:57:00,72.3,54.2,29.84,North,0,9.0,14.0,53,0.00,,,0.00,Wunderground v.1.15,2013-10-06 00:57:00,
2013-10-05 19:59:00,72.3,54.2,29.84,North,11,9.0,14.0,53,0.00,,,0.00,Wunderground v.1.15,2013-10-06 00:59:00,
2013-10-05 20:02:00,72.1,54.5,29.85,NNW,336,8.0,8.0,54,0.00,,,0.00,Wunderground v.1.15,2013-10-06 01:02:00,
2013-10-05 20:03:00,72.1,54.5,29.85,North,6,7.0,8.0,54,0.00,,,0.00,Wunderground v.1.15,2013-10-06 01:03:00,
2013-10-05 20:04:00,72.1,54.5,29.85,North,0,7.0,8.0,54,0.00,,,0.00,Wunderground v.1.15,2013-10-06 01:04:00,
2013-10-05 20:06:00,72.0,54.4,29.85,NNE,30,6.0,10.0,54,0.00,,,0.00,Wunderground v.1.15,2013-10-06 01:06:00,
2013-10-05 20:08:00,71.8,54.3,29.85,North,353,6.0,10.0,54,0.00,,,0.00,Wunderground v.1.15,2013-10-06 01:08:00,
2013-10-05 20:11:00,71.6,54.1,29.85,North,0,8.0,8.0,54,0.00,,,0.00,Wunderground v.1.15,2013-10-06 01:11:00,
2013-10-05 20:12:00,71.6,54.1,29.85,NNW,342,8.0,8.0,54,0.00,,,0.00,Wunderground v.1.15,2013-10-06 01:12:00,
2013-10-05 20:13:00,71.5,54.0,29.85,North,11,8.0,11.0,54,0.00,,,0.00,Wunderground v.1.15,2013-10-06 01:13:00,
2013-10-05 20:14:00,71.5,54.0,29.85,North,8,9.0,13.0,54,0.00,,,0.00,Wunderground v.1.15,2013-10-06 01:14:00,
2013-10-05 20:16:00,71.3,53.8,29.85,North,349,9.0,13.0,54,0.00,,,0.00,Wunderground v.1.15,2013-10-06 01:16:00,
2013-10-05 20:18:00,71.1,53.1,29.85,NE,44,10.0,13.0,53,0.00,,,0.00,Wunderground v.1.15,2013-10-06 01:18:00,
2013-10-05 20:19:00,71.1,53.1,29.85,NE,44,10.0,13.0,53,0.00,,,0.00,Wunderground v.1.15,2013-10-06 01:19:00,
2013-10-05 20:21:00,70.9,52.9,29.85,North,4,10.0,10.0,53,0.00,,,0.00,Wunderground v.1.15,2013-10-06 01:21:00,
2013-10-05 20:23:00,70.9,52.9,29.85,North,10,10.0,11.0,53,0.00,,,0.00,Wunderground v.1.15,2013-10-06 01:23:00,
2013-10-05 20:25:00,70.8,53.3,29.85,North,0,10.0,11.0,54,0.00,,,0.00,Wunderground v.1.15,2013-10-06 01:25:00,
2013-10-05 20:26:00,70.8,52.8,29.85,NW,311,10.0,12.0,53,0.00,,,0.00,Wunderground v.1.15,2013-10-06 01:26:00,
2013-10-05 20:31:00,70.4,52.4,29.85,NNE,14,10.0,10.0,53,0.00,,,0.00,Wunderground v.1.15,2013-10-06 01:31:00,
2013-10-05 20:32:00,70.4,52.4,29.87,North,349,10.0,10.0,53,0.00,,,0.00,Wunderground v.1.15,2013-10-06 01:32:00,
2013-10-05 20:34:00,70.4,53.0,29.87,North,6,10.0,12.0,54,0.00,,,0.00,Wunderground v.1.15,2013-10-06 01:34:00,
2013-10-05 20:36:00,70.3,52.9,29.87,North,0,10.0,12.0,54,0.00,,,0.00,Wunderground v.1.15,2013-10-06 01:36:00,
2013-10-05 20:41:00,70.1,52.7,29.87,North,0,9.0,11.0,54,0.00,,,0.00,Wunderground v.1.15,2013-10-06 01:41:00,
2013-10-05 20:43:00,69.9,52.5,29.87,NNW,340,9.0,11.0,54,0.00,,,0.00,Wunderground v.1.15,2013-10-06 01:43:00,
2013-10-05 20:45:00,69.9,52.5,29.87,North,10,9.0,11.0,54,0.00,,,0.00,Wunderground v.1.15,2013-10-06 01:45:00,
2013-10-05 20:46:00,69.9,52.5,29.87,North,357,9.0,11.0,54,0.00,,,0.00,Wunderground v.1.15,2013-10-06 01:46:00,
2013-10-05 20:48:00,69.8,52.4,29.87,North,11,9.0,18.0,54,0.00,,,0.00,Wunderground v.1.15,2013-10-06 01:48:00,
2013-10-05 20:51:00,69.6,52.2,29.87,NE,37,9.0,9.0,54,0.00,,,0.00,Wunderground v.1.15,2013-10-06 01:51:00,
2013-10-05 20:54:00,69.4,52.0,29.87,North,357,10.0,10.0,54,0.00,,,0.00,Wunderground v.1.15,2013-10-06 01:54:00,
2013-10-05 20:59:00,69.3,51.9,29.87,North,356,9.0,10.0,54,0.00,,,0.00,Wunderground v.1.15,2013-10-06 01:59:00,
2013-10-05 21:01:00,69.1,51.8,29.87,NNE,25,10.0,10.0,54,0.00,,,0.00,Wunderground v.1.15,2013-10-06 02:01:00,
2013-10-05 21:02:00,69.1,51.8,29.88,NNE,23,10.0,10.0,54,0.00,,,0.00,Wunderground v.1.15,2013-10-06 02:02:00,
2013-10-05 21:07:00,68.9,51.1,29.88,North,357,9.0,14.0,53,0.00,,,0.00,Wunderground v.1.15,2013-10-06 02:07:00,
2013-10-05 21:08:00,68.8,51.0,29.88,North,357,10.0,14.0,53,0.00,,,0.00,Wunderground v.1.15,2013-10-06 02:08:00,
2013-10-05 21:11:00,68.6,50.8,29.88,North,4,10.0,10.0,53,0.00,,,0.00,Wunderground v.1.15,2013-10-06 02:11:00,
2013-10-05 21:12:00,68.4,50.6,29.88,NW,319,10.0,10.0,53,0.00,,,0.00,Wunderground v.1.15,2013-10-06 02:12:00,
2013-10-05 21:13:00,68.4,50.6,29.88,North,0,10.0,14.0,53,0.00,,,0.00,Wunderground v.1.15,2013-10-06 02:13:00,
2013-10-05 21:14:00,68.3,50.5,29.88,North,356,10.0,14.0,53,0.00,,,0.00,Wunderground v.1.15,2013-10-06 02:14:00,
2013-10-05 21:15:00,68.3,50.5,29.88,North,0,10.0,14.0,53,0.00,,,0.00,Wunderground v.1.15,2013-10-06 02:15:00,
2013-10-05 21:17:00,68.1,50.3,29.89,NW,315,10.0,14.0,53,0.00,,,0.00,Wunderground v.1.15,2013-10-06 02:17:00,
2013-10-05 21:18:00,67.9,50.1,29.89,North,0,10.0,14.0,53,0.00,,,0.00,Wunderground v.1.15,2013-10-06 02:18:00,
2013-10-05 21:21:00,67.8,50.0,29.89,North,359,10.0,13.0,53,0.00,,,0.00,Wunderground v.1.15,2013-10-06 02:21:00,
2013-10-05 21:23:00,67.6,49.9,29.89,North,0,9.0,13.0,53,0.00,,,0.00,Wunderground v.1.15,2013-10-06 02:23:00,
2013-10-05 21:24:00,67.6,49.9,29.89,North,357,9.0,13.0,53,0.00,,,0.00,Wunderground v.1.15,2013-10-06 02:24:00,
2013-10-05 21:26:00,67.4,49.7,29.89,NNE,28,10.0,13.0,53,0.00,,,0.00,Wunderground v.1.15,2013-10-06 02:26:00,
2013-10-05 21:31:00,67.1,49.9,29.89,NNE,23,10.0,10.0,54,0.00,,,0.00,Wunderground v.1.15,2013-10-06 02:31:00,
2013-10-05 21:32:00,67.1,49.9,29.90,NNW,342,10.0,10.0,54,0.00,,,0.00,Wunderground v.1.15,2013-10-06 02:32:00,
2013-10-05 21:34:00,66.9,49.7,29.90,NNW,347,11.0,13.0,54,0.00,,,0.00,Wunderground v.1.15,2013-10-06 02:34:00,
2013-10-05 21:36:00,66.8,49.6,29.90,North,11,11.0,13.0,54,0.00,,,0.00,Wunderground v.1.15,2013-10-06 02:36:00,
2013-10-05 21:37:00,66.8,50.1,29.90,North,0,11.0,13.0,55,0.00,,,0.00,Wunderground v.1.15,2013-10-06 02:37:00,
2013-10-05 21:38:00,66.6,49.4,29.90,North,357,11.0,13.0,54,0.00,,,0.00,Wunderground v.1.15,2013-10-06 02:38:00,
2013-10-05 21:41:00,66.4,49.7,29.90,North,354,11.0,17.0,55,0.00,,,0.00,Wunderground v.1.15,2013-10-06 02:41:00,
2013-10-05 21:42:00,66.3,49.6,29.90,North,8,11.0,17.0,55,0.00,,,0.00,Wunderground v.1.15,2013-10-06 02:42:00,
2013-10-05 21:44:00,66.1,49.5,29.90,North,0,11.0,17.0,55,0.00,,,0.00,Wunderground v.1.15,2013-10-06 02:44:00,
2013-10-05 21:45:00,66.1,49.5,29.90,North,356,11.0,17.0,55,0.00,,,0.00,Wunderground v.1.15,2013-10-06 02:45:00,
2013-10-05 21:47:00,66.1,49.5,29.91,North,359,11.0,17.0,55,0.00,,,0.00,Wunderground v.1.15,2013-10-06 02:47:00,
2013-10-05 21:51:00,65.6,49.0,29.91,North,352,12.0,12.0,55,0.00,,,0.00,Wunderground v.1.15,2013-10-06 02:51:00,
2013-10-05 21:52:00,65.6,49.0,29.91,NNW,336,12.0,14.0,55,0.00,,,0.00,Wunderground v.1.15,2013-10-06 02:52:00,
2013-10-05 21:57:00,65.3,49.2,29.91,North,359,13.0,20.0,56,0.00,,,0.00,Wunderground v.1.15,2013-10-06 02:57:00,
2013-10-05 21:58:00,65.3,49.2,29.91,NNE,23,12.0,20.0,56,0.00,,,0.00,Wunderground v.1.15,2013-10-06 02:58:00,
2013-10-05 21:59:00,65.3,49.2,29.91,North,0,12.0,20.0,56,0.00,,,0.00,Wunderground v.1.15,2013-10-06 02:59:00,
2013-10-05 22:02:00,65.0,48.9,29.91,NE,51,12.0,12.0,56,0.00,,,0.00,Wunderground v.1.15,2013-10-06 03:02:00,
2013-10-05 22:04:00,65.0,48.9,29.91,NNW,332,12.0,14.0,56,0.00,,,0.00,Wunderground v.1.15,2013-10-06 03:04:00,
2013-10-05 22:05:00,64.8,48.7,29.91,NNE,18,11.0,14.0,56,0.00,,,0.00,Wunderground v.1.15,2013-10-06 03:05:00,
2013-10-05 22:06:00,64.7,49.1,29.91,North,0,11.0,14.0,57,0.00,,,0.00,Wunderground v.1.15,2013-10-06 03:06:00,
2013-10-05 22:07:00,64.7,49.1,29.91,North,352,11.0,14.0,57,0.00,,,0.00,Wunderground v.1.15,2013-10-06 03:07:00,
2013-10-05 22:13:00,64.3,48.7,29.91,NNE,16,10.0,11.0,57,0.00,,,0.00,Wunderground v.1.15,2013-10-06 03:13:00,
2013-10-05 22:14:00,64.3,49.2,29.91,North,11,10.0,11.0,58,0.00,,,0.00,Wunderground v.1.15,2013-10-06 03:14:00,
2013-10-05 22:15:00,64.2,49.1,29.91,WNW,298,11.0,11.0,58,0.00,,,0.00,Wunderground v.1.15,2013-10-06 03:15:00,
2013-10-05 22:16:00,64.2,49.1,29.91,NNE,16,10.0,12.0,58,0.00,,,0.00,Wunderground v.1.15,2013-10-06 03:16:00,
2013-10-05 22:18:00,64.0,48.9,29.92,NNE,21,10.0,12.0,58,0.00,,,0.00,Wunderground v.1.15,2013-10-06 03:18:00,
2013-10-05 22:21:00,64.0,48.9,29.92,NNE,21,10.0,18.0,58,0.00,,,0.00,Wunderground v.1.15,2013-10-06 03:21:00,
2013-10-05 22:24:00,63.9,48.8,29.92,NNW,328,10.0,18.0,58,0.00,,,0.00,Wunderground v.1.15,2013-10-06 03:24:00,
2013-10-05 22:27:00,63.9,48.8,29.92,NNE,30,10.0,18.0,58,0.00,,,0.00,Wunderground v.1.15,2013-10-06 03:27:00,
2013-10-05 22:29:00,63.7,48.6,29.92,NE,42,9.0,18.0,58,0.00,,,0.00,Wunderground v.1.15,2013-10-06 03:29:00,
2013-10-05 22:33:00,63.5,48.5,29.92,North,349,9.0,17.0,58,0.00,,,0.00,Wunderground v.1.15,2013-10-06 03:33:00,
2013-10-05 22:34:00,63.5,48.5,29.92,North,0,9.0,17.0,58,0.00,,,0.00,Wunderground v.1.15,2013-10-06 03:34:00,
2013-10-05 22:35:00,63.5,48.0,29.92,NNE,17,9.0,17.0,57,0.00,,,0.00,Wunderground v.1.15,2013-10-06 03:35:00,
2013-10-05 22:36:00,63.5,48.0,29.92,NNE,17,10.0,17.0,57,0.00,,,0.00,Wunderground v.1.15,2013-10-06 03:36:00,
2013-10-05 22:37:00,63.5,48.0,29.92,North,1,10.0,17.0,57,0.00,,,0.00,Wunderground v.1.15,2013-10-06 03:37:00,
2013-10-05 22:41:00,63.4,47.4,29.92,North,356,11.0,18.0,56,0.00,,,0.00,Wunderground v.1.15,2013-10-06 03:41:00,
2013-10-05 22:42:00,63.4,47.4,29.92,North,10,11.0,18.0,56,0.00,,,0.00,Wunderground v.1.15,2013-10-06 03:42:00,
2013-10-05 22:43:00,63.4,47.4,29.92,North,0,11.0,18.0,56,0.00,,,0.00,Wunderground v.1.15,2013-10-06 03:43:00,
2013-10-05 22:44:00,63.4,47.4,29.92,North,357,11.0,18.0,56,0.00,,,0.00,Wunderground v.1.15,2013-10-06 03:44:00,
2013-10-05 22:46:00,63.4,47.4,29.92,North,4,11.0,18.0,56,0.00,,,0.00,Wunderground v.1.15,2013-10-06 03:46:00,
2013-10-05 22:49:00,63.2,47.2,29.92,North,0,12.0,18.0,56,0.00,,,0.00,Wunderground v.1.15,2013-10-06 03:49:00,
2013-10-05 22:51:00,63.2,46.8,29.92,North,359,12.0,26.0,55,0.00,,,0.00,Wunderground v.1.15,2013-10-06 03:51:00,
2013-10-05 22:53:00,63.2,46.8,29.92,NNE,20,12.0,26.0,55,0.00,,,0.00,Wunderground v.1.15,2013-10-06 03:53:00,
2013-10-05 22:55:00,63.2,46.8,29.92,North,352,12.0,26.0,55,0.00,,,0.00,Wunderground v.1.15,2013-10-06 03:55:00,
2013-10-05 22:56:00,63.2,46.8,29.92,North,0,12.0,26.0,55,0.00,,,0.00,Wunderground v.1.15,2013-10-06 03:56:00,
2013-10-05 22:58:00,63.2,46.8,29.92,NW,304,11.0,26.0,55,0.00,,,0.00,Wunderground v.1.15,2013-10-06 03:58:00,
2013-10-05 23:01:00,63.2,46.8,29.92,North,6,11.0,11.0,55,0.00,,,0.00,Wunderground v.1.15,2013-10-06 04:01:00,
2013-10-05 23:02:00,63.2,46.8,29.92,North,0,10.0,13.0,55,0.00,,,0.00,Wunderground v.1.15,2013-10-06 04:02:00,
2013-10-05 23:04:00,63.2,46.8,29.92,NW,315,10.0,13.0,55,0.00,,,0.00,Wunderground v.1.15,2013-10-06 04:04:00,
2013-10-05 23:05:00,63.2,46.8,29.92,North,356,10.0,13.0,55,0.00,,,0.00,Wunderground v.1.15,2013-10-06 04:05:00,
2013-10-05 23:07:00,63.2,46.8,29.92,North,1,9.0,13.0,55,0.00,,,0.00,Wunderground v.1.15,2013-10-06 04:07:00,
2013-10-05 23:09:00,63.2,46.8,29.92,NNE,30,8.0,13.0,55,0.00,,,0.00,Wunderground v.1.15,2013-10-06 04:09:00,
2013-10-05 23:11:00,63.1,46.7,29.92,North,356,9.0,9.0,55,0.00,,,0.00,Wunderground v.1.15,2013-10-06 04:11:00,
2013-10-05 23:12:00,63.1,46.7,29.92,North,0,9.0,12.0,55,0.00,,,0.00,Wunderground v.1.15,2013-10-06 04:12:00,
2013-10-05 23:13:00,63.1,46.7,29.92,North,359,8.0,12.0,55,0.00,,,0.00,Wunderground v.1.15,2013-10-06 04:13:00,
2013-10-05 23:16:00,63.1,46.7,29.92,NW,311,8.0,12.0,55,0.00,,,0.00,Wunderground v.1.15,2013-10-06 04:16:00,
2013-10-05 23:18:00,63.1,46.7,29.92,North,359,9.0,12.0,55,0.00,,,0.00,Wunderground v.1.15,2013-10-06 04:18:00,
2013-10-05 23:19:00,63.1,46.7,29.92,NNE,14,9.0,20.0,55,0.00,,,0.00,Wunderground v.1.15,2013-10-06 04:19:00,
2013-10-05 23:21:00,63.1,46.7,29.92,North,0,8.0,12.0,55,0.00,,,0.00,Wunderground v.1.15,2013-10-06 04:21:00,
2013-10-05 23:25:00,63.1,46.2,29.92,NE,37,9.0,14.0,54,0.00,,,0.00,Wunderground v.1.15,2013-10-06 04:25:00,
2013-10-05 23:26:00,63.1,45.7,29.92,NE,34,9.0,14.0,53,0.00,,,0.00,Wunderground v.1.15,2013-10-06 04:26:00,
2013-10-05 23:27:00,63.1,45.7,29.92,NNE,24,9.0,14.0,53,0.00,,,0.00,Wunderground v.1.15,2013-10-06 04:27:00,
2013-10-05 23:28:00,63.1,45.7,29.92,North,0,9.0,20.0,53,0.00,,,0.00,Wunderground v.1.15,2013-10-06 04:28:00,
2013-10-05 23:29:00,63.1,45.7,29.92,North,359,10.0,20.0,53,0.00,,,0.00,Wunderground v.1.15,2013-10-06 04:29:00,
2013-10-05 23:33:00,63.1,45.7,29.92,NE,45,11.0,12.0,53,0.00,,,0.00,Wunderground v.1.15,2013-10-06 04:33:00,
2013-10-05 23:34:00,63.1,45.7,29.92,North,8,11.0,12.0,53,0.00,,,0.00,Wunderground v.1.15,2013-10-06 04:34:00,
2013-10-05 23:36:00,63.1,45.2,29.92,North,4,10.0,12.0,52,0.00,,,0.00,Wunderground v.1.15,2013-10-06 04:36:00,
2013-10-05 23:38:00,63.1,45.2,29.92,North,357,11.0,16.0,52,0.00,,,0.00,Wunderground v.1.15,2013-10-06 04:38:00,
2013-10-05 23:39:00,63.1,45.2,29.92,North,356,11.0,16.0,52,0.00,,,0.00,Wunderground v.1.15,2013-10-06 04:39:00,
2013-10-05 23:41:00,63.1,45.2,29.92,North,0,10.0,11.0,52,0.00,,,0.00,Wunderground v.1.15,2013-10-06 04:41:00,
2013-10-05 23:42:00,63.1,45.2,29.92,NE,51,10.0,11.0,52,0.00,,,0.00,Wunderground v.1.15,2013-10-06 04:42:00,
2013-10-05 23:43:00,63.1,45.2,29.92,North,0,10.0,11.0,52,0.00,,,0.00,Wunderground v.1.15,2013-10-06 04:43:00,
2013-10-05 23:45:00,63.1,44.7,29.92,North,1,10.0,11.0,51,0.00,,,0.00,Wunderground v.1.15,2013-10-06 04:45:00,
2013-10-05 23:48:00,63.1,44.7,29.92,NE,34,10.0,11.0,51,0.00,,,0.00,Wunderground v.1.15,2013-10-06 04:48:00,
2013-10-05 23:49:00,62.9,44.5,29.92,NE,48,9.0,11.0,51,0.00,,,0.00,Wunderground v.1.15,2013-10-06 04:49:00,
2013-10-05 23:51:00,62.9,44.0,29.92,North,10,9.0,9.0,50,0.00,,,0.00,Wunderground v.1.15,2013-10-06 04:51:00,
2013-10-05 23:53:00,62.9,44.0,29.92,North,0,9.0,9.0,50,0.00,,,0.00,Wunderground v.1.15,2013-10-06 04:53:00,
2013-10-05 23:56:00,62.9,44.0,29.92,NE,42,8.0,9.0,50,0.00,,,0.00,Wunderground v.1.15,2013-10-06 04:56:00,
2013-10-05 23:57:00,62.9,44.0,29.92,NNE,21,8.0,9.0,50,0.00,,,0.00,Wunderground v.1.15,2013-10-06 04:57:00,
2013-10-05 23:58:00,62.9,44.0,29.92,North,0,8.0,9.0,50,0.00,,,0.00,Wunderground v.1.15,2013-10-06 04:58:00,